<?xml version="1.0" encoding="UTF-8" standalone="no" ?>
<gpx xmlns="http://www.topografix.com/GPX/1/1" xmlns:xsi="http://www.w3.org/2001/XMLSchema-instance" xsi:schemaLocation="http://www.topografix.com/GPX/1/1 http://www.topografix.com/GPX/1/1/gpx.xsd" version="1.1" creator="VisuGPX - https://www.visugpx.com">
  <metadata>
    <name>Clergoux la Dordogne par Pont du Chambon et le barrage du Chastang</name>
    <desc><![CDATA[Un parcours fait en VTT avec des pneus routes]]></desc>
  </metadata>
  <trk>
    <name><![CDATA[Clergoux la Dordogne par Pont du Chambon et le barrage du Chastang_1]]></name>
    <trkseg>
      <trkpt lat="45.2827" lon="1.96964">
        <ele>611</ele>
        <time>2011-08-13T13:16:20.000Z</time>
      </trkpt>
      <trkpt lat="45.2829" lon="1.97024">
        <ele>612</ele>
        <time>2011-08-13T13:16:55.000Z</time>
      </trkpt>
      <trkpt lat="45.2829" lon="1.97092">
        <ele>609</ele>
        <time>2011-08-13T13:17:09.000Z</time>
      </trkpt>
      <trkpt lat="45.2826" lon="1.97148">
        <ele>610</ele>
        <time>2011-08-13T13:17:19.000Z</time>
      </trkpt>
      <trkpt lat="45.2824" lon="1.97217">
        <ele>611</ele>
        <time>2011-08-13T13:17:30.000Z</time>
      </trkpt>
      <trkpt lat="45.2822" lon="1.97276">
        <ele>608</ele>
        <time>2011-08-13T13:17:40.000Z</time>
      </trkpt>
      <trkpt lat="45.282" lon="1.97344">
        <ele>608</ele>
        <time>2011-08-13T13:17:50.000Z</time>
      </trkpt>
      <trkpt lat="45.2817" lon="1.97403">
        <ele>609</ele>
        <time>2011-08-13T13:17:59.000Z</time>
      </trkpt>
      <trkpt lat="45.2816" lon="1.97462">
        <ele>610</ele>
        <time>2011-08-13T13:18:08.000Z</time>
      </trkpt>
      <trkpt lat="45.2814" lon="1.97528">
        <ele>610</ele>
        <time>2011-08-13T13:18:18.000Z</time>
      </trkpt>
      <trkpt lat="45.2811" lon="1.97584">
        <ele>610</ele>
        <time>2011-08-13T13:18:26.000Z</time>
      </trkpt>
      <trkpt lat="45.2808" lon="1.97633">
        <ele>608</ele>
        <time>2011-08-13T13:18:34.000Z</time>
      </trkpt>
      <trkpt lat="45.2802" lon="1.97657">
        <ele>608</ele>
        <time>2011-08-13T13:18:42.000Z</time>
      </trkpt>
      <trkpt lat="45.2798" lon="1.97665">
        <ele>608</ele>
        <time>2011-08-13T13:18:51.000Z</time>
      </trkpt>
      <trkpt lat="45.2793" lon="1.97691">
        <ele>609</ele>
        <time>2011-08-13T13:19:04.000Z</time>
      </trkpt>
      <trkpt lat="45.279" lon="1.97736">
        <ele>608</ele>
        <time>2011-08-13T13:19:12.000Z</time>
      </trkpt>
      <trkpt lat="45.2787" lon="1.97794">
        <ele>606</ele>
        <time>2011-08-13T13:19:19.000Z</time>
      </trkpt>
      <trkpt lat="45.2785" lon="1.97858">
        <ele>604</ele>
        <time>2011-08-13T13:19:26.000Z</time>
      </trkpt>
      <trkpt lat="45.2782" lon="1.97903">
        <ele>602</ele>
        <time>2011-08-13T13:19:40.000Z</time>
      </trkpt>
      <trkpt lat="45.278" lon="1.97974">
        <ele>599</ele>
        <time>2011-08-13T13:19:49.000Z</time>
      </trkpt>
      <trkpt lat="45.2779" lon="1.98042">
        <ele>599</ele>
        <time>2011-08-13T13:19:56.000Z</time>
      </trkpt>
      <trkpt lat="45.2778" lon="1.98106">
        <ele>599</ele>
        <time>2011-08-13T13:20:02.000Z</time>
      </trkpt>
      <trkpt lat="45.2777" lon="1.98171">
        <ele>599</ele>
        <time>2011-08-13T13:20:08.000Z</time>
      </trkpt>
      <trkpt lat="45.2775" lon="1.98241">
        <ele>596</ele>
        <time>2011-08-13T13:20:14.000Z</time>
      </trkpt>
      <trkpt lat="45.2774" lon="1.98304">
        <ele>594</ele>
        <time>2011-08-13T13:20:20.000Z</time>
      </trkpt>
      <trkpt lat="45.2772" lon="1.98376">
        <ele>592</ele>
        <time>2011-08-13T13:20:27.000Z</time>
      </trkpt>
      <trkpt lat="45.2771" lon="1.9844">
        <ele>590</ele>
        <time>2011-08-13T13:20:33.000Z</time>
      </trkpt>
      <trkpt lat="45.277" lon="1.98503">
        <ele>590</ele>
        <time>2011-08-13T13:20:39.000Z</time>
      </trkpt>
      <trkpt lat="45.2769" lon="1.98568">
        <ele>589</ele>
        <time>2011-08-13T13:20:45.000Z</time>
      </trkpt>
      <trkpt lat="45.2767" lon="1.98637">
        <ele>591</ele>
        <time>2011-08-13T13:20:52.000Z</time>
      </trkpt>
      <trkpt lat="45.2766" lon="1.987">
        <ele>590</ele>
        <time>2011-08-13T13:20:59.000Z</time>
      </trkpt>
      <trkpt lat="45.2765" lon="1.9878">
        <ele>589</ele>
        <time>2011-08-13T13:21:07.000Z</time>
      </trkpt>
      <trkpt lat="45.2764" lon="1.98839">
        <ele>588</ele>
        <time>2011-08-13T13:21:13.000Z</time>
      </trkpt>
      <trkpt lat="45.2762" lon="1.98906">
        <ele>589</ele>
        <time>2011-08-13T13:21:20.000Z</time>
      </trkpt>
      <trkpt lat="45.2761" lon="1.98975">
        <ele>587</ele>
        <time>2011-08-13T13:21:27.000Z</time>
      </trkpt>
      <trkpt lat="45.276" lon="1.99061">
        <ele>588</ele>
        <time>2011-08-13T13:21:35.000Z</time>
      </trkpt>
      <trkpt lat="45.276" lon="1.99139">
        <ele>587</ele>
        <time>2011-08-13T13:21:41.000Z</time>
      </trkpt>
      <trkpt lat="45.276" lon="1.99228">
        <ele>584</ele>
        <time>2011-08-13T13:21:47.000Z</time>
      </trkpt>
      <trkpt lat="45.2762" lon="1.9929">
        <ele>582</ele>
        <time>2011-08-13T13:21:52.000Z</time>
      </trkpt>
      <trkpt lat="45.2766" lon="1.99328">
        <ele>580</ele>
        <time>2011-08-13T13:21:56.000Z</time>
      </trkpt>
      <trkpt lat="45.277" lon="1.99365">
        <ele>580</ele>
        <time>2011-08-13T13:22:00.000Z</time>
      </trkpt>
      <trkpt lat="45.2772" lon="1.99417">
        <ele>576</ele>
        <time>2011-08-13T13:22:04.000Z</time>
      </trkpt>
      <trkpt lat="45.2773" lon="1.99482">
        <ele>575</ele>
        <time>2011-08-13T13:22:09.000Z</time>
      </trkpt>
      <trkpt lat="45.2771" lon="1.99547">
        <ele>577</ele>
        <time>2011-08-13T13:22:17.000Z</time>
      </trkpt>
      <trkpt lat="45.2767" lon="1.99597">
        <ele>582</ele>
        <time>2011-08-13T13:22:28.000Z</time>
      </trkpt>
      <trkpt lat="45.2764" lon="1.99644">
        <ele>583</ele>
        <time>2011-08-13T13:22:38.000Z</time>
      </trkpt>
      <trkpt lat="45.2763" lon="1.99707">
        <ele>583</ele>
        <time>2011-08-13T13:22:49.000Z</time>
      </trkpt>
      <trkpt lat="45.2766" lon="1.99754">
        <ele>588</ele>
        <time>2011-08-13T13:23:01.000Z</time>
      </trkpt>
      <trkpt lat="45.2768" lon="1.99808">
        <ele>594</ele>
        <time>2011-08-13T13:23:12.000Z</time>
      </trkpt>
      <trkpt lat="45.2771" lon="1.99861">
        <ele>594</ele>
        <time>2011-08-13T13:23:22.000Z</time>
      </trkpt>
      <trkpt lat="45.2774" lon="1.99916">
        <ele>601</ele>
        <time>2011-08-13T13:23:34.000Z</time>
      </trkpt>
      <trkpt lat="45.2777" lon="1.99969">
        <ele>602</ele>
        <time>2011-08-13T13:23:44.000Z</time>
      </trkpt>
      <trkpt lat="45.278" lon="2.00025">
        <ele>608</ele>
        <time>2011-08-13T13:23:56.000Z</time>
      </trkpt>
      <trkpt lat="45.2783" lon="2.00076">
        <ele>610</ele>
        <time>2011-08-13T13:24:06.000Z</time>
      </trkpt>
      <trkpt lat="45.2786" lon="2.00124">
        <ele>611</ele>
        <time>2011-08-13T13:24:16.000Z</time>
      </trkpt>
      <trkpt lat="45.2789" lon="2.00177">
        <ele>611</ele>
        <time>2011-08-13T13:24:25.000Z</time>
      </trkpt>
      <trkpt lat="45.2792" lon="2.00255">
        <ele>609</ele>
        <time>2011-08-13T13:24:33.000Z</time>
      </trkpt>
      <trkpt lat="45.2793" lon="2.00323">
        <ele>607</ele>
        <time>2011-08-13T13:24:38.000Z</time>
      </trkpt>
      <trkpt lat="45.2791" lon="2.00392">
        <ele>605</ele>
        <time>2011-08-13T13:24:43.000Z</time>
      </trkpt>
      <trkpt lat="45.2787" lon="2.00465">
        <ele>600</ele>
        <time>2011-08-13T13:24:49.000Z</time>
      </trkpt>
      <trkpt lat="45.2783" lon="2.00507">
        <ele>598</ele>
        <time>2011-08-13T13:24:53.000Z</time>
      </trkpt>
      <trkpt lat="45.278" lon="2.00562">
        <ele>597</ele>
        <time>2011-08-13T13:24:58.000Z</time>
      </trkpt>
      <trkpt lat="45.2776" lon="2.00616">
        <ele>596</ele>
        <time>2011-08-13T13:25:03.000Z</time>
      </trkpt>
      <trkpt lat="45.2772" lon="2.00665">
        <ele>595</ele>
        <time>2011-08-13T13:25:07.000Z</time>
      </trkpt>
      <trkpt lat="45.2768" lon="2.00715">
        <ele>594</ele>
        <time>2011-08-13T13:25:11.000Z</time>
      </trkpt>
      <trkpt lat="45.2764" lon="2.00769">
        <ele>592</ele>
        <time>2011-08-13T13:25:15.000Z</time>
      </trkpt>
      <trkpt lat="45.2762" lon="2.00839">
        <ele>590</ele>
        <time>2011-08-13T13:25:19.000Z</time>
      </trkpt>
      <trkpt lat="45.2763" lon="2.00913">
        <ele>589</ele>
        <time>2011-08-13T13:25:23.000Z</time>
      </trkpt>
      <trkpt lat="45.2766" lon="2.0096">
        <ele>586</ele>
        <time>2011-08-13T13:25:27.000Z</time>
      </trkpt>
      <trkpt lat="45.277" lon="2.01004">
        <ele>585</ele>
        <time>2011-08-13T13:25:31.000Z</time>
      </trkpt>
      <trkpt lat="45.2774" lon="2.01042">
        <ele>584</ele>
        <time>2011-08-13T13:25:35.000Z</time>
      </trkpt>
      <trkpt lat="45.2779" lon="2.01068">
        <ele>581</ele>
        <time>2011-08-13T13:25:39.000Z</time>
      </trkpt>
      <trkpt lat="45.2784" lon="2.0111">
        <ele>579</ele>
        <time>2011-08-13T13:25:44.000Z</time>
      </trkpt>
      <trkpt lat="45.2785" lon="2.01169">
        <ele>574</ele>
        <time>2011-08-13T13:25:48.000Z</time>
      </trkpt>
      <trkpt lat="45.2787" lon="2.0124">
        <ele>566</ele>
        <time>2011-08-13T13:25:53.000Z</time>
      </trkpt>
      <trkpt lat="45.2788" lon="2.01324">
        <ele>560</ele>
        <time>2011-08-13T13:25:59.000Z</time>
      </trkpt>
      <trkpt lat="45.2787" lon="2.01395">
        <ele>559</ele>
        <time>2011-08-13T13:26:07.000Z</time>
      </trkpt>
      <trkpt lat="45.2786" lon="2.01459">
        <ele>561</ele>
        <time>2011-08-13T13:26:17.000Z</time>
      </trkpt>
      <trkpt lat="45.2785" lon="2.01526">
        <ele>563</ele>
        <time>2011-08-13T13:26:31.000Z</time>
      </trkpt>
      <trkpt lat="45.2785" lon="2.01599">
        <ele>565</ele>
        <time>2011-08-13T13:26:43.000Z</time>
      </trkpt>
      <trkpt lat="45.2783" lon="2.01667">
        <ele>568</ele>
        <time>2011-08-13T13:26:55.000Z</time>
      </trkpt>
      <trkpt lat="45.2781" lon="2.01723">
        <ele>572</ele>
        <time>2011-08-13T13:27:07.000Z</time>
      </trkpt>
      <trkpt lat="45.2778" lon="2.0178">
        <ele>577</ele>
        <time>2011-08-13T13:27:19.000Z</time>
      </trkpt>
      <trkpt lat="45.2775" lon="2.01827">
        <ele>583</ele>
        <time>2011-08-13T13:27:32.000Z</time>
      </trkpt>
      <trkpt lat="45.277" lon="2.01857">
        <ele>583</ele>
        <time>2011-08-13T13:27:43.000Z</time>
      </trkpt>
      <trkpt lat="45.2766" lon="2.01901">
        <ele>587</ele>
        <time>2011-08-13T13:27:56.000Z</time>
      </trkpt>
      <trkpt lat="45.2763" lon="2.01942">
        <ele>594</ele>
        <time>2011-08-13T13:28:12.000Z</time>
      </trkpt>
      <trkpt lat="45.2759" lon="2.01992">
        <ele>599</ele>
        <time>2011-08-13T13:28:25.000Z</time>
      </trkpt>
      <trkpt lat="45.2756" lon="2.02027">
        <ele>608</ele>
        <time>2011-08-13T13:28:37.000Z</time>
      </trkpt>
      <trkpt lat="45.2751" lon="2.02058">
        <ele>613</ele>
        <time>2011-08-13T13:28:49.000Z</time>
      </trkpt>
      <trkpt lat="45.2746" lon="2.0209">
        <ele>622</ele>
        <time>2011-08-13T13:29:03.000Z</time>
      </trkpt>
      <trkpt lat="45.2742" lon="2.02108">
        <ele>620</ele>
        <time>2011-08-13T13:29:11.000Z</time>
      </trkpt>
      <trkpt lat="45.2737" lon="2.02139">
        <ele>622</ele>
        <time>2011-08-13T13:29:20.000Z</time>
      </trkpt>
      <trkpt lat="45.2733" lon="2.02166">
        <ele>620</ele>
        <time>2011-08-13T13:29:29.000Z</time>
      </trkpt>
      <trkpt lat="45.273" lon="2.02212">
        <ele>615</ele>
        <time>2011-08-13T13:29:43.000Z</time>
      </trkpt>
      <trkpt lat="45.2726" lon="2.02262">
        <ele>614</ele>
        <time>2011-08-13T13:29:53.000Z</time>
      </trkpt>
      <trkpt lat="45.2724" lon="2.0232">
        <ele>614</ele>
        <time>2011-08-13T13:30:04.000Z</time>
      </trkpt>
      <trkpt lat="45.2721" lon="2.02379">
        <ele>613</ele>
        <time>2011-08-13T13:30:14.000Z</time>
      </trkpt>
      <trkpt lat="45.2719" lon="2.02439">
        <ele>611</ele>
        <time>2011-08-13T13:30:23.000Z</time>
      </trkpt>
      <trkpt lat="45.2719" lon="2.02507">
        <ele>610</ele>
        <time>2011-08-13T13:30:32.000Z</time>
      </trkpt>
      <trkpt lat="45.2717" lon="2.02566">
        <ele>608</ele>
        <time>2011-08-13T13:30:39.000Z</time>
      </trkpt>
      <trkpt lat="45.2716" lon="2.02637">
        <ele>606</ele>
        <time>2011-08-13T13:30:48.000Z</time>
      </trkpt>
      <trkpt lat="45.2713" lon="2.02701">
        <ele>611</ele>
        <time>2011-08-13T13:30:58.000Z</time>
      </trkpt>
      <trkpt lat="45.2714" lon="2.02773">
        <ele>604</ele>
        <time>2011-08-13T13:31:10.000Z</time>
      </trkpt>
      <trkpt lat="45.2717" lon="2.02824">
        <ele>604</ele>
        <time>2011-08-13T13:31:19.000Z</time>
      </trkpt>
      <trkpt lat="45.272" lon="2.02877">
        <ele>604</ele>
        <time>2011-08-13T13:31:30.000Z</time>
      </trkpt>
      <trkpt lat="45.2723" lon="2.0293">
        <ele>602</ele>
        <time>2011-08-13T13:31:40.000Z</time>
      </trkpt>
      <trkpt lat="45.2725" lon="2.02992">
        <ele>605</ele>
        <time>2011-08-13T13:31:50.000Z</time>
      </trkpt>
      <trkpt lat="45.2727" lon="2.03049">
        <ele>605</ele>
        <time>2011-08-13T13:32:00.000Z</time>
      </trkpt>
      <trkpt lat="45.2729" lon="2.03107">
        <ele>606</ele>
        <time>2011-08-13T13:32:10.000Z</time>
      </trkpt>
      <trkpt lat="45.2731" lon="2.03166">
        <ele>615</ele>
        <time>2011-08-13T13:32:26.000Z</time>
      </trkpt>
      <trkpt lat="45.2736" lon="2.03176">
        <ele>634</ele>
        <time>2011-08-13T13:32:42.000Z</time>
      </trkpt>
      <trkpt lat="45.2739" lon="2.03218">
        <ele>643</ele>
        <time>2011-08-13T13:32:54.000Z</time>
      </trkpt>
      <trkpt lat="45.2743" lon="2.03248">
        <ele>649</ele>
        <time>2011-08-13T13:33:06.000Z</time>
      </trkpt>
      <trkpt lat="45.2747" lon="2.03295">
        <ele>651</ele>
        <time>2011-08-13T13:33:19.000Z</time>
      </trkpt>
      <trkpt lat="45.275" lon="2.03352">
        <ele>639</ele>
        <time>2011-08-13T13:33:30.000Z</time>
      </trkpt>
      <trkpt lat="45.275" lon="2.03423">
        <ele>631</ele>
        <time>2011-08-13T13:33:39.000Z</time>
      </trkpt>
      <trkpt lat="45.2749" lon="2.03491">
        <ele>627</ele>
        <time>2011-08-13T13:33:46.000Z</time>
      </trkpt>
      <trkpt lat="45.2747" lon="2.03559">
        <ele>626</ele>
        <time>2011-08-13T13:33:52.000Z</time>
      </trkpt>
      <trkpt lat="45.2744" lon="2.0364">
        <ele>625</ele>
        <time>2011-08-13T13:33:58.000Z</time>
      </trkpt>
      <trkpt lat="45.2742" lon="2.03698">
        <ele>627</ele>
        <time>2011-08-13T13:34:06.000Z</time>
      </trkpt>
      <trkpt lat="45.2741" lon="2.03761">
        <ele>634</ele>
        <time>2011-08-13T13:34:22.000Z</time>
      </trkpt>
      <trkpt lat="45.274" lon="2.03827">
        <ele>643</ele>
        <time>2011-08-13T13:34:38.000Z</time>
      </trkpt>
      <trkpt lat="45.2739" lon="2.03897">
        <ele>644</ele>
        <time>2011-08-13T13:34:57.000Z</time>
      </trkpt>
      <trkpt lat="45.2738" lon="2.03964">
        <ele>643</ele>
        <time>2011-08-13T13:35:13.000Z</time>
      </trkpt>
      <trkpt lat="45.2737" lon="2.04039">
        <ele>646</ele>
        <time>2011-08-13T13:35:29.000Z</time>
      </trkpt>
      <trkpt lat="45.2736" lon="2.04106">
        <ele>651</ele>
        <time>2011-08-13T13:35:45.000Z</time>
      </trkpt>
      <trkpt lat="45.2734" lon="2.04163">
        <ele>646</ele>
        <time>2011-08-13T13:35:54.000Z</time>
      </trkpt>
      <trkpt lat="45.2731" lon="2.04218">
        <ele>644</ele>
        <time>2011-08-13T13:36:06.000Z</time>
      </trkpt>
      <trkpt lat="45.2728" lon="2.04272">
        <ele>651</ele>
        <time>2011-08-13T13:36:19.000Z</time>
      </trkpt>
      <trkpt lat="45.2724" lon="2.04315">
        <ele>655</ele>
        <time>2011-08-13T13:36:33.000Z</time>
      </trkpt>
      <trkpt lat="45.2721" lon="2.04354">
        <ele>661</ele>
        <time>2011-08-13T13:36:46.000Z</time>
      </trkpt>
      <trkpt lat="45.272" lon="2.04418">
        <ele>663</ele>
        <time>2011-08-13T13:37:01.000Z</time>
      </trkpt>
      <trkpt lat="45.272" lon="2.04486">
        <ele>667</ele>
        <time>2011-08-13T13:37:13.000Z</time>
      </trkpt>
      <trkpt lat="45.2718" lon="2.04565">
        <ele>663</ele>
        <time>2011-08-13T13:37:21.000Z</time>
      </trkpt>
      <trkpt lat="45.2715" lon="2.0463">
        <ele>662</ele>
        <time>2011-08-13T13:37:29.000Z</time>
      </trkpt>
      <trkpt lat="45.2715" lon="2.04696">
        <ele>664</ele>
        <time>2011-08-13T13:37:37.000Z</time>
      </trkpt>
      <trkpt lat="45.2714" lon="2.04761">
        <ele>667</ele>
        <time>2011-08-13T13:37:47.000Z</time>
      </trkpt>
      <trkpt lat="45.2713" lon="2.04834">
        <ele>669</ele>
        <time>2011-08-13T13:37:57.000Z</time>
      </trkpt>
      <trkpt lat="45.271" lon="2.04901">
        <ele>675</ele>
        <time>2011-08-13T13:38:05.000Z</time>
      </trkpt>
      <trkpt lat="45.2708" lon="2.0496">
        <ele>676</ele>
        <time>2011-08-13T13:38:13.000Z</time>
      </trkpt>
      <trkpt lat="45.2706" lon="2.05018">
        <ele>676</ele>
        <time>2011-08-13T13:38:21.000Z</time>
      </trkpt>
      <trkpt lat="45.2704" lon="2.05082">
        <ele>672</ele>
        <time>2011-08-13T13:38:30.000Z</time>
      </trkpt>
      <trkpt lat="45.2705" lon="2.05151">
        <ele>668</ele>
        <time>2011-08-13T13:38:37.000Z</time>
      </trkpt>
      <trkpt lat="45.2705" lon="2.05217">
        <ele>670</ele>
        <time>2011-08-13T13:38:42.000Z</time>
      </trkpt>
      <trkpt lat="45.2704" lon="2.05292">
        <ele>672</ele>
        <time>2011-08-13T13:38:49.000Z</time>
      </trkpt>
      <trkpt lat="45.2703" lon="2.05367">
        <ele>672</ele>
        <time>2011-08-13T13:38:55.000Z</time>
      </trkpt>
      <trkpt lat="45.2701" lon="2.05431">
        <ele>671</ele>
        <time>2011-08-13T13:39:01.000Z</time>
      </trkpt>
      <trkpt lat="45.27" lon="2.055">
        <ele>674</ele>
        <time>2011-08-13T13:39:07.000Z</time>
      </trkpt>
      <trkpt lat="45.27" lon="2.05578">
        <ele>672</ele>
        <time>2011-08-13T13:39:12.000Z</time>
      </trkpt>
      <trkpt lat="45.2699" lon="2.0565">
        <ele>669</ele>
        <time>2011-08-13T13:39:16.000Z</time>
      </trkpt>
      <trkpt lat="45.2698" lon="2.05713">
        <ele>667</ele>
        <time>2011-08-13T13:39:21.000Z</time>
      </trkpt>
      <trkpt lat="45.2694" lon="2.05747">
        <ele>666</ele>
        <time>2011-08-13T13:39:29.000Z</time>
      </trkpt>
      <trkpt lat="45.2689" lon="2.05773">
        <ele>664</ele>
        <time>2011-08-13T13:39:38.000Z</time>
      </trkpt>
      <trkpt lat="45.2686" lon="2.05827">
        <ele>664</ele>
        <time>2011-08-13T13:39:50.000Z</time>
      </trkpt>
      <trkpt lat="45.2685" lon="2.05887">
        <ele>665</ele>
        <time>2011-08-13T13:39:59.000Z</time>
      </trkpt>
      <trkpt lat="45.2683" lon="2.05954">
        <ele>665</ele>
        <time>2011-08-13T13:40:05.000Z</time>
      </trkpt>
      <trkpt lat="45.2682" lon="2.06029">
        <ele>666</ele>
        <time>2011-08-13T13:40:12.000Z</time>
      </trkpt>
      <trkpt lat="45.268" lon="2.06093">
        <ele>665</ele>
        <time>2011-08-13T13:40:17.000Z</time>
      </trkpt>
      <trkpt lat="45.2677" lon="2.06142">
        <ele>661</ele>
        <time>2011-08-13T13:40:21.000Z</time>
      </trkpt>
      <trkpt lat="45.2672" lon="2.06161">
        <ele>660</ele>
        <time>2011-08-13T13:40:25.000Z</time>
      </trkpt>
      <trkpt lat="45.2668" lon="2.06184">
        <ele>658</ele>
        <time>2011-08-13T13:40:32.000Z</time>
      </trkpt>
      <trkpt lat="45.2666" lon="2.06243">
        <ele>658</ele>
        <time>2011-08-13T13:40:42.000Z</time>
      </trkpt>
      <trkpt lat="45.2664" lon="2.06308">
        <ele>658</ele>
        <time>2011-08-13T13:40:57.000Z</time>
      </trkpt>
      <trkpt lat="45.2665" lon="2.06378">
        <ele>665</ele>
        <time>2011-08-13T13:41:10.000Z</time>
      </trkpt>
      <trkpt lat="45.2664" lon="2.06442">
        <ele>666</ele>
        <time>2011-08-13T13:41:19.000Z</time>
      </trkpt>
      <trkpt lat="45.2663" lon="2.06509">
        <ele>661</ele>
        <time>2011-08-13T13:41:28.000Z</time>
      </trkpt>
      <trkpt lat="45.2664" lon="2.06581">
        <ele>665</ele>
        <time>2011-08-13T13:41:35.000Z</time>
      </trkpt>
      <trkpt lat="45.2663" lon="2.06659">
        <ele>668</ele>
        <time>2011-08-13T13:41:42.000Z</time>
      </trkpt>
      <trkpt lat="45.2659" lon="2.06726">
        <ele>666</ele>
        <time>2011-08-13T13:41:50.000Z</time>
      </trkpt>
      <trkpt lat="45.2655" lon="2.06777">
        <ele>660</ele>
        <time>2011-08-13T13:41:56.000Z</time>
      </trkpt>
      <trkpt lat="45.2651" lon="2.06822">
        <ele>657</ele>
        <time>2011-08-13T13:42:02.000Z</time>
      </trkpt>
      <trkpt lat="45.2647" lon="2.06879">
        <ele>654</ele>
        <time>2011-08-13T13:42:10.000Z</time>
      </trkpt>
      <trkpt lat="45.2642" lon="2.06929">
        <ele>655</ele>
        <time>2011-08-13T13:42:18.000Z</time>
      </trkpt>
      <trkpt lat="45.2639" lon="2.06973">
        <ele>653</ele>
        <time>2011-08-13T13:42:25.000Z</time>
      </trkpt>
      <trkpt lat="45.2637" lon="2.07044">
        <ele>654</ele>
        <time>2011-08-13T13:42:33.000Z</time>
      </trkpt>
      <trkpt lat="45.2635" lon="2.07107">
        <ele>649</ele>
        <time>2011-08-13T13:42:39.000Z</time>
      </trkpt>
      <trkpt lat="45.2632" lon="2.07173">
        <ele>647</ele>
        <time>2011-08-13T13:42:45.000Z</time>
      </trkpt>
      <trkpt lat="45.2629" lon="2.07234">
        <ele>650</ele>
        <time>2011-08-13T13:42:53.000Z</time>
      </trkpt>
      <trkpt lat="45.2627" lon="2.07288">
        <ele>649</ele>
        <time>2011-08-13T13:42:59.000Z</time>
      </trkpt>
      <trkpt lat="45.2621" lon="2.0735">
        <ele>643</ele>
        <time>2011-08-13T13:43:05.000Z</time>
      </trkpt>
      <trkpt lat="45.2616" lon="2.07381">
        <ele>640</ele>
        <time>2011-08-13T13:43:09.000Z</time>
      </trkpt>
      <trkpt lat="45.2612" lon="2.0741">
        <ele>637</ele>
        <time>2011-08-13T13:43:13.000Z</time>
      </trkpt>
      <trkpt lat="45.2608" lon="2.0744">
        <ele>630</ele>
        <time>2011-08-13T13:43:18.000Z</time>
      </trkpt>
      <trkpt lat="45.2603" lon="2.07486">
        <ele>625</ele>
        <time>2011-08-13T13:43:23.000Z</time>
      </trkpt>
      <trkpt lat="45.26" lon="2.07534">
        <ele>619</ele>
        <time>2011-08-13T13:43:29.000Z</time>
      </trkpt>
      <trkpt lat="45.2604" lon="2.07577">
        <ele>617</ele>
        <time>2011-08-13T13:43:36.000Z</time>
      </trkpt>
      <trkpt lat="45.2607" lon="2.07644">
        <ele>615</ele>
        <time>2011-08-13T13:43:42.000Z</time>
      </trkpt>
      <trkpt lat="45.2607" lon="2.0771">
        <ele>609</ele>
        <time>2011-08-13T13:43:48.000Z</time>
      </trkpt>
      <trkpt lat="45.2603" lon="2.07698">
        <ele>610</ele>
        <time>2011-08-13T13:43:56.000Z</time>
      </trkpt>
      <trkpt lat="45.2599" lon="2.07664">
        <ele>615</ele>
        <time>2011-08-13T13:44:11.000Z</time>
      </trkpt>
      <trkpt lat="45.2594" lon="2.0765">
        <ele>608</ele>
        <time>2011-08-13T13:44:19.000Z</time>
      </trkpt>
      <trkpt lat="45.2589" lon="2.07675">
        <ele>611</ele>
        <time>2011-08-13T13:44:37.000Z</time>
      </trkpt>
      <trkpt lat="45.2586" lon="2.07719">
        <ele>615</ele>
        <time>2011-08-13T13:44:49.000Z</time>
      </trkpt>
      <trkpt lat="45.2582" lon="2.0775">
        <ele>621</ele>
        <time>2011-08-13T13:45:13.000Z</time>
      </trkpt>
      <trkpt lat="45.2578" lon="2.07784">
        <ele>623</ele>
        <time>2011-08-13T13:45:31.000Z</time>
      </trkpt>
      <trkpt lat="45.2576" lon="2.07841">
        <ele>626</ele>
        <time>2011-08-13T13:45:49.000Z</time>
      </trkpt>
      <trkpt lat="45.2575" lon="2.07908">
        <ele>631</ele>
        <time>2011-08-13T13:46:03.000Z</time>
      </trkpt>
      <trkpt lat="45.2572" lon="2.07971">
        <ele>628</ele>
        <time>2011-08-13T13:46:17.000Z</time>
      </trkpt>
      <trkpt lat="45.2571" lon="2.08037">
        <ele>634</ele>
        <time>2011-08-13T13:46:31.000Z</time>
      </trkpt>
      <trkpt lat="45.257" lon="2.08103">
        <ele>636</ele>
        <time>2011-08-13T13:46:45.000Z</time>
      </trkpt>
      <trkpt lat="45.2569" lon="2.08166">
        <ele>637</ele>
        <time>2011-08-13T13:46:58.000Z</time>
      </trkpt>
      <trkpt lat="45.2569" lon="2.08239">
        <ele>638</ele>
        <time>2011-08-13T13:47:13.000Z</time>
      </trkpt>
      <trkpt lat="45.2565" lon="2.08263">
        <ele>633</ele>
        <time>2011-08-13T13:47:27.000Z</time>
      </trkpt>
      <trkpt lat="45.2561" lon="2.0823">
        <ele>635</ele>
        <time>2011-08-13T13:47:38.000Z</time>
      </trkpt>
      <trkpt lat="45.2556" lon="2.0823">
        <ele>641</ele>
        <time>2011-08-13T13:47:51.000Z</time>
      </trkpt>
      <trkpt lat="45.2551" lon="2.08232">
        <ele>638</ele>
        <time>2011-08-13T13:47:59.000Z</time>
      </trkpt>
      <trkpt lat="45.2547" lon="2.08204">
        <ele>636</ele>
        <time>2011-08-13T13:48:06.000Z</time>
      </trkpt>
      <trkpt lat="45.2543" lon="2.08161">
        <ele>632</ele>
        <time>2011-08-13T13:48:14.000Z</time>
      </trkpt>
      <trkpt lat="45.2539" lon="2.08127">
        <ele>632</ele>
        <time>2011-08-13T13:48:22.000Z</time>
      </trkpt>
      <trkpt lat="45.2534" lon="2.08089">
        <ele>631</ele>
        <time>2011-08-13T13:48:30.000Z</time>
      </trkpt>
      <trkpt lat="45.2531" lon="2.08046">
        <ele>630</ele>
        <time>2011-08-13T13:48:38.000Z</time>
      </trkpt>
      <trkpt lat="45.2527" lon="2.07998">
        <ele>630</ele>
        <time>2011-08-13T13:48:47.000Z</time>
      </trkpt>
      <trkpt lat="45.2523" lon="2.07969">
        <ele>629</ele>
        <time>2011-08-13T13:48:55.000Z</time>
      </trkpt>
      <trkpt lat="45.2518" lon="2.07941">
        <ele>628</ele>
        <time>2011-08-13T13:49:03.000Z</time>
      </trkpt>
      <trkpt lat="45.2514" lon="2.07914">
        <ele>628</ele>
        <time>2011-08-13T13:49:11.000Z</time>
      </trkpt>
      <trkpt lat="45.2509" lon="2.07915">
        <ele>629</ele>
        <time>2011-08-13T13:49:19.000Z</time>
      </trkpt>
      <trkpt lat="45.2504" lon="2.07918">
        <ele>630</ele>
        <time>2011-08-13T13:49:27.000Z</time>
      </trkpt>
      <trkpt lat="45.2499" lon="2.07929">
        <ele>629</ele>
        <time>2011-08-13T13:49:35.000Z</time>
      </trkpt>
      <trkpt lat="45.2494" lon="2.07937">
        <ele>630</ele>
        <time>2011-08-13T13:49:43.000Z</time>
      </trkpt>
      <trkpt lat="45.2489" lon="2.07935">
        <ele>632</ele>
        <time>2011-08-13T13:49:51.000Z</time>
      </trkpt>
      <trkpt lat="45.2484" lon="2.07944">
        <ele>634</ele>
        <time>2011-08-13T13:49:59.000Z</time>
      </trkpt>
      <trkpt lat="45.248" lon="2.07958">
        <ele>635</ele>
        <time>2011-08-13T13:50:07.000Z</time>
      </trkpt>
      <trkpt lat="45.2475" lon="2.07981">
        <ele>635</ele>
        <time>2011-08-13T13:50:15.000Z</time>
      </trkpt>
      <trkpt lat="45.247" lon="2.08003">
        <ele>637</ele>
        <time>2011-08-13T13:50:22.000Z</time>
      </trkpt>
      <trkpt lat="45.2465" lon="2.08022">
        <ele>636</ele>
        <time>2011-08-13T13:50:29.000Z</time>
      </trkpt>
      <trkpt lat="45.2461" lon="2.08051">
        <ele>636</ele>
        <time>2011-08-13T13:50:37.000Z</time>
      </trkpt>
      <trkpt lat="45.2456" lon="2.08077">
        <ele>635</ele>
        <time>2011-08-13T13:50:43.000Z</time>
      </trkpt>
      <trkpt lat="45.2452" lon="2.0811">
        <ele>636</ele>
        <time>2011-08-13T13:50:50.000Z</time>
      </trkpt>
      <trkpt lat="45.2446" lon="2.08129">
        <ele>634</ele>
        <time>2011-08-13T13:50:57.000Z</time>
      </trkpt>
      <trkpt lat="45.2442" lon="2.08141">
        <ele>632</ele>
        <time>2011-08-13T13:51:03.000Z</time>
      </trkpt>
      <trkpt lat="45.2437" lon="2.08149">
        <ele>631</ele>
        <time>2011-08-13T13:51:09.000Z</time>
      </trkpt>
      <trkpt lat="45.243" lon="2.08161">
        <ele>629</ele>
        <time>2011-08-13T13:51:17.000Z</time>
      </trkpt>
      <trkpt lat="45.2426" lon="2.08156">
        <ele>628</ele>
        <time>2011-08-13T13:51:23.000Z</time>
      </trkpt>
      <trkpt lat="45.2421" lon="2.0815">
        <ele>627</ele>
        <time>2011-08-13T13:51:29.000Z</time>
      </trkpt>
      <trkpt lat="45.2415" lon="2.08154">
        <ele>627</ele>
        <time>2011-08-13T13:51:37.000Z</time>
      </trkpt>
      <trkpt lat="45.2411" lon="2.0818">
        <ele>631</ele>
        <time>2011-08-13T13:51:43.000Z</time>
      </trkpt>
      <trkpt lat="45.2406" lon="2.08186">
        <ele>631</ele>
        <time>2011-08-13T13:51:49.000Z</time>
      </trkpt>
      <trkpt lat="45.2401" lon="2.08222">
        <ele>625</ele>
        <time>2011-08-13T13:52:01.000Z</time>
      </trkpt>
      <trkpt lat="45.2399" lon="2.08289">
        <ele>625</ele>
        <time>2011-08-13T13:52:10.000Z</time>
      </trkpt>
      <trkpt lat="45.2395" lon="2.08331">
        <ele>622</ele>
        <time>2011-08-13T13:52:15.000Z</time>
      </trkpt>
      <trkpt lat="45.2391" lon="2.08388">
        <ele>624</ele>
        <time>2011-08-13T13:52:21.000Z</time>
      </trkpt>
      <trkpt lat="45.2387" lon="2.08415">
        <ele>621</ele>
        <time>2011-08-13T13:52:25.000Z</time>
      </trkpt>
      <trkpt lat="45.2383" lon="2.0846">
        <ele>617</ele>
        <time>2011-08-13T13:52:30.000Z</time>
      </trkpt>
      <trkpt lat="45.2381" lon="2.08534">
        <ele>613</ele>
        <time>2011-08-13T13:52:37.000Z</time>
      </trkpt>
      <trkpt lat="45.2381" lon="2.08613">
        <ele>611</ele>
        <time>2011-08-13T13:52:45.000Z</time>
      </trkpt>
      <trkpt lat="45.2381" lon="2.08682">
        <ele>604</ele>
        <time>2011-08-13T13:52:51.000Z</time>
      </trkpt>
      <trkpt lat="45.2381" lon="2.08769">
        <ele>600</ele>
        <time>2011-08-13T13:52:57.000Z</time>
      </trkpt>
      <trkpt lat="45.2379" lon="2.08824">
        <ele>598</ele>
        <time>2011-08-13T13:53:01.000Z</time>
      </trkpt>
      <trkpt lat="45.2376" lon="2.08881">
        <ele>597</ele>
        <time>2011-08-13T13:53:06.000Z</time>
      </trkpt>
      <trkpt lat="45.2372" lon="2.08912">
        <ele>596</ele>
        <time>2011-08-13T13:53:10.000Z</time>
      </trkpt>
      <trkpt lat="45.2367" lon="2.08953">
        <ele>594</ele>
        <time>2011-08-13T13:53:14.000Z</time>
      </trkpt>
      <trkpt lat="45.2363" lon="2.08991">
        <ele>590</ele>
        <time>2011-08-13T13:53:18.000Z</time>
      </trkpt>
      <trkpt lat="45.2359" lon="2.09029">
        <ele>585</ele>
        <time>2011-08-13T13:53:22.000Z</time>
      </trkpt>
      <trkpt lat="45.2358" lon="2.09091">
        <ele>583</ele>
        <time>2011-08-13T13:53:26.000Z</time>
      </trkpt>
      <trkpt lat="45.2357" lon="2.09162">
        <ele>580</ele>
        <time>2011-08-13T13:53:31.000Z</time>
      </trkpt>
      <trkpt lat="45.2354" lon="2.09218">
        <ele>582</ele>
        <time>2011-08-13T13:53:38.000Z</time>
      </trkpt>
      <trkpt lat="45.2349" lon="2.09231">
        <ele>591</ele>
        <time>2011-08-13T13:53:51.000Z</time>
      </trkpt>
      <trkpt lat="45.2344" lon="2.09224">
        <ele>586</ele>
        <time>2011-08-13T13:54:01.000Z</time>
      </trkpt>
      <trkpt lat="45.2339" lon="2.09249">
        <ele>588</ele>
        <time>2011-08-13T13:54:13.000Z</time>
      </trkpt>
      <trkpt lat="45.2335" lon="2.0928">
        <ele>596</ele>
        <time>2011-08-13T13:54:23.000Z</time>
      </trkpt>
      <trkpt lat="45.2331" lon="2.09316">
        <ele>599</ele>
        <time>2011-08-13T13:54:34.000Z</time>
      </trkpt>
      <trkpt lat="45.2327" lon="2.09364">
        <ele>598</ele>
        <time>2011-08-13T13:54:45.000Z</time>
      </trkpt>
      <trkpt lat="45.2323" lon="2.09404">
        <ele>603</ele>
        <time>2011-08-13T13:54:54.000Z</time>
      </trkpt>
      <trkpt lat="45.2319" lon="2.09441">
        <ele>606</ele>
        <time>2011-08-13T13:55:01.000Z</time>
      </trkpt>
      <trkpt lat="45.2315" lon="2.09475">
        <ele>610</ele>
        <time>2011-08-13T13:55:13.000Z</time>
      </trkpt>
      <trkpt lat="45.231" lon="2.09469">
        <ele>603</ele>
        <time>2011-08-13T13:55:21.000Z</time>
      </trkpt>
      <trkpt lat="45.2305" lon="2.09469">
        <ele>599</ele>
        <time>2011-08-13T13:55:33.000Z</time>
      </trkpt>
      <trkpt lat="45.23" lon="2.09506">
        <ele>602</ele>
        <time>2011-08-13T13:55:45.000Z</time>
      </trkpt>
      <trkpt lat="45.2294" lon="2.09545">
        <ele>604</ele>
        <time>2011-08-13T13:55:53.000Z</time>
      </trkpt>
      <trkpt lat="45.229" lon="2.09579">
        <ele>601</ele>
        <time>2011-08-13T13:55:59.000Z</time>
      </trkpt>
      <trkpt lat="45.2289" lon="2.09644">
        <ele>600</ele>
        <time>2011-08-13T13:56:05.000Z</time>
      </trkpt>
      <trkpt lat="45.2288" lon="2.09707">
        <ele>598</ele>
        <time>2011-08-13T13:56:10.000Z</time>
      </trkpt>
      <trkpt lat="45.2289" lon="2.09772">
        <ele>596</ele>
        <time>2011-08-13T13:56:15.000Z</time>
      </trkpt>
      <trkpt lat="45.229" lon="2.09848">
        <ele>595</ele>
        <time>2011-08-13T13:56:21.000Z</time>
      </trkpt>
      <trkpt lat="45.229" lon="2.09914">
        <ele>594</ele>
        <time>2011-08-13T13:56:29.000Z</time>
      </trkpt>
      <trkpt lat="45.2292" lon="2.09977">
        <ele>593</ele>
        <time>2011-08-13T13:56:33.000Z</time>
      </trkpt>
      <trkpt lat="45.2291" lon="2.10049">
        <ele>593</ele>
        <time>2011-08-13T13:56:38.000Z</time>
      </trkpt>
      <trkpt lat="45.2291" lon="2.10115">
        <ele>592</ele>
        <time>2011-08-13T13:56:43.000Z</time>
      </trkpt>
      <trkpt lat="45.2291" lon="2.10209">
        <ele>595</ele>
        <time>2011-08-13T13:56:49.000Z</time>
      </trkpt>
      <trkpt lat="45.2291" lon="2.10276">
        <ele>594</ele>
        <time>2011-08-13T13:56:54.000Z</time>
      </trkpt>
      <trkpt lat="45.2287" lon="2.10344">
        <ele>582</ele>
        <time>2011-08-13T13:56:59.000Z</time>
      </trkpt>
      <trkpt lat="45.2282" lon="2.10379">
        <ele>573</ele>
        <time>2011-08-13T13:57:05.000Z</time>
      </trkpt>
      <trkpt lat="45.2277" lon="2.104">
        <ele>572</ele>
        <time>2011-08-13T13:57:09.000Z</time>
      </trkpt>
      <trkpt lat="45.2273" lon="2.10436">
        <ele>570</ele>
        <time>2011-08-13T13:57:13.000Z</time>
      </trkpt>
      <trkpt lat="45.2267" lon="2.10455">
        <ele>558</ele>
        <time>2011-08-13T13:57:17.000Z</time>
      </trkpt>
      <trkpt lat="45.2262" lon="2.10421">
        <ele>544</ele>
        <time>2011-08-13T13:57:21.000Z</time>
      </trkpt>
      <trkpt lat="45.226" lon="2.10359">
        <ele>541</ele>
        <time>2011-08-13T13:57:27.000Z</time>
      </trkpt>
      <trkpt lat="45.2257" lon="2.10415">
        <ele>544</ele>
        <time>2011-08-13T13:57:42.000Z</time>
      </trkpt>
      <trkpt lat="45.2254" lon="2.10475">
        <ele>544</ele>
        <time>2011-08-13T13:57:48.000Z</time>
      </trkpt>
      <trkpt lat="45.2248" lon="2.105">
        <ele>527</ele>
        <time>2011-08-13T13:57:52.000Z</time>
      </trkpt>
      <trkpt lat="45.2245" lon="2.10454">
        <ele>518</ele>
        <time>2011-08-13T13:57:57.000Z</time>
      </trkpt>
      <trkpt lat="45.2244" lon="2.10527">
        <ele>516</ele>
        <time>2011-08-13T13:58:10.000Z</time>
      </trkpt>
      <trkpt lat="45.2245" lon="2.10591">
        <ele>517</ele>
        <time>2011-08-13T13:58:15.000Z</time>
      </trkpt>
      <trkpt lat="45.2248" lon="2.10647">
        <ele>518</ele>
        <time>2011-08-13T13:58:20.000Z</time>
      </trkpt>
      <trkpt lat="45.2252" lon="2.10701">
        <ele>520</ele>
        <time>2011-08-13T13:58:25.000Z</time>
      </trkpt>
      <trkpt lat="45.2256" lon="2.10738">
        <ele>521</ele>
        <time>2011-08-13T13:58:31.000Z</time>
      </trkpt>
      <trkpt lat="45.2259" lon="2.10818">
        <ele>509</ele>
        <time>2011-08-13T13:58:38.000Z</time>
      </trkpt>
      <trkpt lat="45.2256" lon="2.1087">
        <ele>496</ele>
        <time>2011-08-13T13:58:42.000Z</time>
      </trkpt>
      <trkpt lat="45.2251" lon="2.10867">
        <ele>495</ele>
        <time>2011-08-13T13:58:49.000Z</time>
      </trkpt>
      <trkpt lat="45.2246" lon="2.10854">
        <ele>494</ele>
        <time>2011-08-13T13:58:54.000Z</time>
      </trkpt>
      <trkpt lat="45.2241" lon="2.1084">
        <ele>493</ele>
        <time>2011-08-13T13:58:58.000Z</time>
      </trkpt>
      <trkpt lat="45.2235" lon="2.10838">
        <ele>493</ele>
        <time>2011-08-13T13:59:03.000Z</time>
      </trkpt>
      <trkpt lat="45.2231" lon="2.10842">
        <ele>491</ele>
        <time>2011-08-13T13:59:07.000Z</time>
      </trkpt>
      <trkpt lat="45.2225" lon="2.10866">
        <ele>489</ele>
        <time>2011-08-13T13:59:13.000Z</time>
      </trkpt>
      <trkpt lat="45.2221" lon="2.10891">
        <ele>485</ele>
        <time>2011-08-13T13:59:17.000Z</time>
      </trkpt>
      <trkpt lat="45.2216" lon="2.1089">
        <ele>472</ele>
        <time>2011-08-13T13:59:22.000Z</time>
      </trkpt>
      <trkpt lat="45.2213" lon="2.1083">
        <ele>467</ele>
        <time>2011-08-13T13:59:29.000Z</time>
      </trkpt>
      <trkpt lat="45.2211" lon="2.10763">
        <ele>466</ele>
        <time>2011-08-13T13:59:37.000Z</time>
      </trkpt>
      <trkpt lat="45.2213" lon="2.10836">
        <ele>462</ele>
        <time>2011-08-13T13:59:49.000Z</time>
      </trkpt>
      <trkpt lat="45.2215" lon="2.10922">
        <ele>455</ele>
        <time>2011-08-13T13:59:57.000Z</time>
      </trkpt>
      <trkpt lat="45.2211" lon="2.10887">
        <ele>445</ele>
        <time>2011-08-13T14:00:06.000Z</time>
      </trkpt>
      <trkpt lat="45.2208" lon="2.10819">
        <ele>443</ele>
        <time>2011-08-13T14:00:13.000Z</time>
      </trkpt>
      <trkpt lat="45.2206" lon="2.10757">
        <ele>443</ele>
        <time>2011-08-13T14:00:18.000Z</time>
      </trkpt>
      <trkpt lat="45.2205" lon="2.10685">
        <ele>445</ele>
        <time>2011-08-13T14:00:23.000Z</time>
      </trkpt>
      <trkpt lat="45.2208" lon="2.10735">
        <ele>438</ele>
        <time>2011-08-13T14:00:45.000Z</time>
      </trkpt>
      <trkpt lat="45.2208" lon="2.10798">
        <ele>436</ele>
        <time>2011-08-13T14:00:49.000Z</time>
      </trkpt>
      <trkpt lat="45.221" lon="2.10866">
        <ele>434</ele>
        <time>2011-08-13T14:00:53.000Z</time>
      </trkpt>
      <trkpt lat="45.2209" lon="2.1094">
        <ele>432</ele>
        <time>2011-08-13T14:00:58.000Z</time>
      </trkpt>
      <trkpt lat="45.2209" lon="2.11009">
        <ele>422</ele>
        <time>2011-08-13T14:01:05.000Z</time>
      </trkpt>
      <trkpt lat="45.2205" lon="2.10984">
        <ele>413</ele>
        <time>2011-08-13T14:01:10.000Z</time>
      </trkpt>
      <trkpt lat="45.2202" lon="2.10917">
        <ele>407</ele>
        <time>2011-08-13T14:01:17.000Z</time>
      </trkpt>
      <trkpt lat="45.22" lon="2.10851">
        <ele>408</ele>
        <time>2011-08-13T14:01:23.000Z</time>
      </trkpt>
      <trkpt lat="45.2199" lon="2.10771">
        <ele>402</ele>
        <time>2011-08-13T14:01:29.000Z</time>
      </trkpt>
      <trkpt lat="45.2202" lon="2.10834">
        <ele>397</ele>
        <time>2011-08-13T14:01:47.000Z</time>
      </trkpt>
      <trkpt lat="45.2202" lon="2.10904">
        <ele>392</ele>
        <time>2011-08-13T14:01:54.000Z</time>
      </trkpt>
      <trkpt lat="45.2198" lon="2.10873">
        <ele>389</ele>
        <time>2011-08-13T14:01:59.000Z</time>
      </trkpt>
      <trkpt lat="45.2197" lon="2.10807">
        <ele>381</ele>
        <time>2011-08-13T14:02:05.000Z</time>
      </trkpt>
      <trkpt lat="45.2196" lon="2.10738">
        <ele>378</ele>
        <time>2011-08-13T14:02:11.000Z</time>
      </trkpt>
      <trkpt lat="45.2195" lon="2.10666">
        <ele>378</ele>
        <time>2011-08-13T14:02:17.000Z</time>
      </trkpt>
      <trkpt lat="45.2193" lon="2.10603">
        <ele>378</ele>
        <time>2011-08-13T14:02:23.000Z</time>
      </trkpt>
      <trkpt lat="45.2197" lon="2.10653">
        <ele>376</ele>
        <time>2011-08-13T14:02:46.000Z</time>
      </trkpt>
      <trkpt lat="45.2198" lon="2.10731">
        <ele>372</ele>
        <time>2011-08-13T14:02:51.000Z</time>
      </trkpt>
      <trkpt lat="45.2198" lon="2.10794">
        <ele>367</ele>
        <time>2011-08-13T14:02:55.000Z</time>
      </trkpt>
      <trkpt lat="45.2199" lon="2.10859">
        <ele>363</ele>
        <time>2011-08-13T14:02:59.000Z</time>
      </trkpt>
      <trkpt lat="45.2197" lon="2.10936">
        <ele>363</ele>
        <time>2011-08-13T14:03:05.000Z</time>
      </trkpt>
      <trkpt lat="45.2197" lon="2.11014">
        <ele>362</ele>
        <time>2011-08-13T14:03:16.000Z</time>
      </trkpt>
      <trkpt lat="45.2192" lon="2.11">
        <ele>345</ele>
        <time>2011-08-13T14:03:24.000Z</time>
      </trkpt>
      <trkpt lat="45.2196" lon="2.11057">
        <ele>338</ele>
        <time>2011-08-13T14:03:52.000Z</time>
      </trkpt>
      <trkpt lat="45.22" lon="2.11113">
        <ele>335</ele>
        <time>2011-08-13T14:03:57.000Z</time>
      </trkpt>
      <trkpt lat="45.2202" lon="2.1119">
        <ele>320</ele>
        <time>2011-08-13T14:04:04.000Z</time>
      </trkpt>
      <trkpt lat="45.22" lon="2.11262">
        <ele>317</ele>
        <time>2011-08-13T14:04:12.000Z</time>
      </trkpt>
      <trkpt lat="45.2199" lon="2.11331">
        <ele>315</ele>
        <time>2011-08-13T14:04:21.000Z</time>
      </trkpt>
      <trkpt lat="45.22" lon="2.11394">
        <ele>316</ele>
        <time>2011-08-13T14:04:34.000Z</time>
      </trkpt>
      <trkpt lat="45.2196" lon="2.1138">
        <ele>314</ele>
        <time>2011-08-13T14:05:00.000Z</time>
      </trkpt>
      <trkpt lat="45.2191" lon="2.11357">
        <ele>313</ele>
        <time>2011-08-13T14:05:09.000Z</time>
      </trkpt>
      <trkpt lat="45.2195" lon="2.11382">
        <ele>317</ele>
        <time>2011-08-13T14:06:22.000Z</time>
      </trkpt>
      <trkpt lat="45.2199" lon="2.11426">
        <ele>321</ele>
        <time>2011-08-13T14:06:40.000Z</time>
      </trkpt>
      <trkpt lat="45.22" lon="2.11493">
        <ele>316</ele>
        <time>2011-08-13T14:07:00.000Z</time>
      </trkpt>
      <trkpt lat="45.2203" lon="2.11554">
        <ele>313</ele>
        <time>2011-08-13T14:07:16.000Z</time>
      </trkpt>
      <trkpt lat="45.2198" lon="2.11517">
        <ele>310</ele>
        <time>2011-08-13T14:07:44.000Z</time>
      </trkpt>
      <trkpt lat="45.2202" lon="2.11505">
        <ele>324</ele>
        <time>2011-08-13T14:08:19.000Z</time>
      </trkpt>
      <trkpt lat="45.2207" lon="2.11478">
        <ele>330</ele>
        <time>2011-08-13T14:08:41.000Z</time>
      </trkpt>
      <trkpt lat="45.2212" lon="2.11465">
        <ele>339</ele>
        <time>2011-08-13T14:09:07.000Z</time>
      </trkpt>
      <trkpt lat="45.2216" lon="2.11485">
        <ele>346</ele>
        <time>2011-08-13T14:09:38.000Z</time>
      </trkpt>
      <trkpt lat="45.222" lon="2.11527">
        <ele>358</ele>
        <time>2011-08-13T14:09:53.000Z</time>
      </trkpt>
      <trkpt lat="45.2224" lon="2.1157">
        <ele>361</ele>
        <time>2011-08-13T14:10:03.000Z</time>
      </trkpt>
      <trkpt lat="45.2219" lon="2.11553">
        <ele>374</ele>
        <time>2011-08-13T14:10:21.000Z</time>
      </trkpt>
      <trkpt lat="45.2215" lon="2.11531">
        <ele>388</ele>
        <time>2011-08-13T14:10:35.000Z</time>
      </trkpt>
      <trkpt lat="45.2211" lon="2.11572">
        <ele>388</ele>
        <time>2011-08-13T14:11:06.000Z</time>
      </trkpt>
      <trkpt lat="45.2207" lon="2.11602">
        <ele>389</ele>
        <time>2011-08-13T14:11:35.000Z</time>
      </trkpt>
      <trkpt lat="45.2204" lon="2.11643">
        <ele>388</ele>
        <time>2011-08-13T14:11:57.000Z</time>
      </trkpt>
      <trkpt lat="45.2199" lon="2.11671">
        <ele>389</ele>
        <time>2011-08-13T14:12:22.000Z</time>
      </trkpt>
      <trkpt lat="45.2195" lon="2.11687">
        <ele>390</ele>
        <time>2011-08-13T14:12:33.000Z</time>
      </trkpt>
      <trkpt lat="45.219" lon="2.1171">
        <ele>393</ele>
        <time>2011-08-13T14:12:55.000Z</time>
      </trkpt>
      <trkpt lat="45.2186" lon="2.11722">
        <ele>398</ele>
        <time>2011-08-13T14:13:12.000Z</time>
      </trkpt>
      <trkpt lat="45.2181" lon="2.11731">
        <ele>403</ele>
        <time>2011-08-13T14:13:34.000Z</time>
      </trkpt>
      <trkpt lat="45.2176" lon="2.11726">
        <ele>409</ele>
        <time>2011-08-13T14:13:46.000Z</time>
      </trkpt>
      <trkpt lat="45.2181" lon="2.11707">
        <ele>417</ele>
        <time>2011-08-13T14:14:58.000Z</time>
      </trkpt>
      <trkpt lat="45.2186" lon="2.11719">
        <ele>420</ele>
        <time>2011-08-13T14:15:10.000Z</time>
      </trkpt>
      <trkpt lat="45.219" lon="2.11723">
        <ele>424</ele>
        <time>2011-08-13T14:15:27.000Z</time>
      </trkpt>
      <trkpt lat="45.2195" lon="2.11711">
        <ele>427</ele>
        <time>2011-08-13T14:15:51.000Z</time>
      </trkpt>
      <trkpt lat="45.22" lon="2.11706">
        <ele>468</ele>
        <time>2011-08-13T14:16:20.000Z</time>
      </trkpt>
      <trkpt lat="45.2205" lon="2.11684">
        <ele>473</ele>
        <time>2011-08-13T14:16:40.000Z</time>
      </trkpt>
      <trkpt lat="45.2209" lon="2.11668">
        <ele>468</ele>
        <time>2011-08-13T14:17:00.000Z</time>
      </trkpt>
      <trkpt lat="45.2214" lon="2.11684">
        <ele>470</ele>
        <time>2011-08-13T14:17:18.000Z</time>
      </trkpt>
      <trkpt lat="45.2218" lon="2.11721">
        <ele>479</ele>
        <time>2011-08-13T14:17:38.000Z</time>
      </trkpt>
      <trkpt lat="45.2222" lon="2.11761">
        <ele>485</ele>
        <time>2011-08-13T14:17:58.000Z</time>
      </trkpt>
      <trkpt lat="45.2225" lon="2.11815">
        <ele>494</ele>
        <time>2011-08-13T14:18:14.000Z</time>
      </trkpt>
      <trkpt lat="45.2226" lon="2.11876">
        <ele>498</ele>
        <time>2011-08-13T14:18:35.000Z</time>
      </trkpt>
      <trkpt lat="45.2229" lon="2.11917">
        <ele>497</ele>
        <time>2011-08-13T14:18:52.000Z</time>
      </trkpt>
      <trkpt lat="45.223" lon="2.11985">
        <ele>503</ele>
        <time>2011-08-13T14:19:14.000Z</time>
      </trkpt>
      <trkpt lat="45.2229" lon="2.12053">
        <ele>502</ele>
        <time>2011-08-13T14:19:30.000Z</time>
      </trkpt>
      <trkpt lat="45.2228" lon="2.12118">
        <ele>512</ele>
        <time>2011-08-13T14:19:52.000Z</time>
      </trkpt>
      <trkpt lat="45.223" lon="2.12176">
        <ele>524</ele>
        <time>2011-08-13T14:20:23.000Z</time>
      </trkpt>
      <trkpt lat="45.2232" lon="2.12237">
        <ele>535</ele>
        <time>2011-08-13T14:20:42.000Z</time>
      </trkpt>
      <trkpt lat="45.2232" lon="2.12301">
        <ele>537</ele>
        <time>2011-08-13T14:20:56.000Z</time>
      </trkpt>
      <trkpt lat="45.2231" lon="2.12366">
        <ele>534</ele>
        <time>2011-08-13T14:21:18.000Z</time>
      </trkpt>
      <trkpt lat="45.2231" lon="2.12434">
        <ele>527</ele>
        <time>2011-08-13T14:21:34.000Z</time>
      </trkpt>
      <trkpt lat="45.223" lon="2.12496">
        <ele>532</ele>
        <time>2011-08-13T14:22:02.000Z</time>
      </trkpt>
      <trkpt lat="45.2229" lon="2.12562">
        <ele>534</ele>
        <time>2011-08-13T14:22:31.000Z</time>
      </trkpt>
      <trkpt lat="45.2231" lon="2.12626">
        <ele>540</ele>
        <time>2011-08-13T14:23:00.000Z</time>
      </trkpt>
      <trkpt lat="45.2233" lon="2.12681">
        <ele>555</ele>
        <time>2011-08-13T14:23:23.000Z</time>
      </trkpt>
      <trkpt lat="45.2234" lon="2.12746">
        <ele>563</ele>
        <time>2011-08-13T14:23:36.000Z</time>
      </trkpt>
      <trkpt lat="45.2233" lon="2.1281">
        <ele>568</ele>
        <time>2011-08-13T14:23:56.000Z</time>
      </trkpt>
      <trkpt lat="45.2233" lon="2.12882">
        <ele>568</ele>
        <time>2011-08-13T14:24:22.000Z</time>
      </trkpt>
      <trkpt lat="45.2231" lon="2.12943">
        <ele>569</ele>
        <time>2011-08-13T14:24:44.000Z</time>
      </trkpt>
      <trkpt lat="45.2229" lon="2.12997">
        <ele>573</ele>
        <time>2011-08-13T14:25:07.000Z</time>
      </trkpt>
      <trkpt lat="45.2226" lon="2.13056">
        <ele>569</ele>
        <time>2011-08-13T14:25:28.000Z</time>
      </trkpt>
      <trkpt lat="45.2224" lon="2.13112">
        <ele>577</ele>
        <time>2011-08-13T14:25:52.000Z</time>
      </trkpt>
      <trkpt lat="45.2223" lon="2.13177">
        <ele>578</ele>
        <time>2011-08-13T14:26:11.000Z</time>
      </trkpt>
      <trkpt lat="45.222" lon="2.13229">
        <ele>584</ele>
        <time>2011-08-13T14:26:30.000Z</time>
      </trkpt>
      <trkpt lat="45.2218" lon="2.1328">
        <ele>582</ele>
        <time>2011-08-13T14:26:48.000Z</time>
      </trkpt>
      <trkpt lat="45.2215" lon="2.13329">
        <ele>580</ele>
        <time>2011-08-13T14:27:05.000Z</time>
      </trkpt>
      <trkpt lat="45.2211" lon="2.13374">
        <ele>584</ele>
        <time>2011-08-13T14:27:21.000Z</time>
      </trkpt>
      <trkpt lat="45.2208" lon="2.13423">
        <ele>591</ele>
        <time>2011-08-13T14:27:40.000Z</time>
      </trkpt>
      <trkpt lat="45.2205" lon="2.1346">
        <ele>590</ele>
        <time>2011-08-13T14:27:55.000Z</time>
      </trkpt>
      <trkpt lat="45.2201" lon="2.13507">
        <ele>593</ele>
        <time>2011-08-13T14:28:13.000Z</time>
      </trkpt>
      <trkpt lat="45.2199" lon="2.13561">
        <ele>597</ele>
        <time>2011-08-13T14:28:30.000Z</time>
      </trkpt>
      <trkpt lat="45.2195" lon="2.13604">
        <ele>598</ele>
        <time>2011-08-13T14:28:44.000Z</time>
      </trkpt>
      <trkpt lat="45.2191" lon="2.13632">
        <ele>598</ele>
        <time>2011-08-13T14:28:56.000Z</time>
      </trkpt>
      <trkpt lat="45.2186" lon="2.13652">
        <ele>600</ele>
        <time>2011-08-13T14:29:09.000Z</time>
      </trkpt>
      <trkpt lat="45.2182" lon="2.13672">
        <ele>600</ele>
        <time>2011-08-13T14:29:21.000Z</time>
      </trkpt>
      <trkpt lat="45.2177" lon="2.13692">
        <ele>602</ele>
        <time>2011-08-13T14:29:34.000Z</time>
      </trkpt>
      <trkpt lat="45.2173" lon="2.13712">
        <ele>606</ele>
        <time>2011-08-13T14:29:46.000Z</time>
      </trkpt>
      <trkpt lat="45.2169" lon="2.13745">
        <ele>609</ele>
        <time>2011-08-13T14:30:00.000Z</time>
      </trkpt>
      <trkpt lat="45.2164" lon="2.13772">
        <ele>608</ele>
        <time>2011-08-13T14:30:12.000Z</time>
      </trkpt>
      <trkpt lat="45.216" lon="2.13799">
        <ele>606</ele>
        <time>2011-08-13T14:30:24.000Z</time>
      </trkpt>
      <trkpt lat="45.2156" lon="2.13832">
        <ele>608</ele>
        <time>2011-08-13T14:30:37.000Z</time>
      </trkpt>
      <trkpt lat="45.2153" lon="2.13875">
        <ele>611</ele>
        <time>2011-08-13T14:30:50.000Z</time>
      </trkpt>
      <trkpt lat="45.2148" lon="2.13901">
        <ele>619</ele>
        <time>2011-08-13T14:31:02.000Z</time>
      </trkpt>
      <trkpt lat="45.2144" lon="2.13928">
        <ele>619</ele>
        <time>2011-08-13T14:31:14.000Z</time>
      </trkpt>
      <trkpt lat="45.214" lon="2.13953">
        <ele>625</ele>
        <time>2011-08-13T14:31:29.000Z</time>
      </trkpt>
      <trkpt lat="45.2135" lon="2.1397">
        <ele>630</ele>
        <time>2011-08-13T14:31:43.000Z</time>
      </trkpt>
      <trkpt lat="45.2131" lon="2.13983">
        <ele>631</ele>
        <time>2011-08-13T14:31:57.000Z</time>
      </trkpt>
      <trkpt lat="45.2126" lon="2.14002">
        <ele>634</ele>
        <time>2011-08-13T14:32:12.000Z</time>
      </trkpt>
      <trkpt lat="45.2122" lon="2.14013">
        <ele>636</ele>
        <time>2011-08-13T14:32:25.000Z</time>
      </trkpt>
      <trkpt lat="45.2117" lon="2.14019">
        <ele>639</ele>
        <time>2011-08-13T14:32:40.000Z</time>
      </trkpt>
      <trkpt lat="45.2112" lon="2.14019">
        <ele>641</ele>
        <time>2011-08-13T14:32:56.000Z</time>
      </trkpt>
      <trkpt lat="45.2107" lon="2.14015">
        <ele>643</ele>
        <time>2011-08-13T14:33:10.000Z</time>
      </trkpt>
      <trkpt lat="45.2102" lon="2.14004">
        <ele>644</ele>
        <time>2011-08-13T14:33:24.000Z</time>
      </trkpt>
      <trkpt lat="45.2097" lon="2.14">
        <ele>644</ele>
        <time>2011-08-13T14:33:37.000Z</time>
      </trkpt>
      <trkpt lat="45.2093" lon="2.14002">
        <ele>647</ele>
        <time>2011-08-13T14:33:50.000Z</time>
      </trkpt>
      <trkpt lat="45.2088" lon="2.14001">
        <ele>646</ele>
        <time>2011-08-13T14:34:02.000Z</time>
      </trkpt>
      <trkpt lat="45.2083" lon="2.14005">
        <ele>646</ele>
        <time>2011-08-13T14:34:15.000Z</time>
      </trkpt>
      <trkpt lat="45.2079" lon="2.14016">
        <ele>649</ele>
        <time>2011-08-13T14:34:27.000Z</time>
      </trkpt>
      <trkpt lat="45.2075" lon="2.14048">
        <ele>652</ele>
        <time>2011-08-13T14:34:39.000Z</time>
      </trkpt>
      <trkpt lat="45.207" lon="2.14063">
        <ele>654</ele>
        <time>2011-08-13T14:34:51.000Z</time>
      </trkpt>
      <trkpt lat="45.2066" lon="2.1406">
        <ele>652</ele>
        <time>2011-08-13T14:35:02.000Z</time>
      </trkpt>
      <trkpt lat="45.2061" lon="2.14068">
        <ele>655</ele>
        <time>2011-08-13T14:35:12.000Z</time>
      </trkpt>
      <trkpt lat="45.2057" lon="2.14096">
        <ele>655</ele>
        <time>2011-08-13T14:35:23.000Z</time>
      </trkpt>
      <trkpt lat="45.2054" lon="2.1415">
        <ele>653</ele>
        <time>2011-08-13T14:35:33.000Z</time>
      </trkpt>
      <trkpt lat="45.2052" lon="2.14214">
        <ele>653</ele>
        <time>2011-08-13T14:35:44.000Z</time>
      </trkpt>
      <trkpt lat="45.2051" lon="2.14278">
        <ele>654</ele>
        <time>2011-08-13T14:35:55.000Z</time>
      </trkpt>
      <trkpt lat="45.2049" lon="2.1434">
        <ele>656</ele>
        <time>2011-08-13T14:36:06.000Z</time>
      </trkpt>
      <trkpt lat="45.2047" lon="2.14402">
        <ele>657</ele>
        <time>2011-08-13T14:36:15.000Z</time>
      </trkpt>
      <trkpt lat="45.2046" lon="2.14466">
        <ele>656</ele>
        <time>2011-08-13T14:36:23.000Z</time>
      </trkpt>
      <trkpt lat="45.2044" lon="2.1453">
        <ele>656</ele>
        <time>2011-08-13T14:36:32.000Z</time>
      </trkpt>
      <trkpt lat="45.2043" lon="2.1459">
        <ele>658</ele>
        <time>2011-08-13T14:36:41.000Z</time>
      </trkpt>
      <trkpt lat="45.204" lon="2.14653">
        <ele>658</ele>
        <time>2011-08-13T14:36:51.000Z</time>
      </trkpt>
      <trkpt lat="45.2036" lon="2.14634">
        <ele>662</ele>
        <time>2011-08-13T14:37:02.000Z</time>
      </trkpt>
      <trkpt lat="45.2031" lon="2.14592">
        <ele>661</ele>
        <time>2011-08-13T14:37:11.000Z</time>
      </trkpt>
      <trkpt lat="45.2027" lon="2.1456">
        <ele>660</ele>
        <time>2011-08-13T14:37:19.000Z</time>
      </trkpt>
      <trkpt lat="45.2023" lon="2.14522">
        <ele>660</ele>
        <time>2011-08-13T14:37:27.000Z</time>
      </trkpt>
      <trkpt lat="45.2019" lon="2.14482">
        <ele>662</ele>
        <time>2011-08-13T14:37:39.000Z</time>
      </trkpt>
      <trkpt lat="45.2016" lon="2.14429">
        <ele>662</ele>
        <time>2011-08-13T14:37:48.000Z</time>
      </trkpt>
      <trkpt lat="45.2017" lon="2.14359">
        <ele>663</ele>
        <time>2011-08-13T14:37:55.000Z</time>
      </trkpt>
      <trkpt lat="45.2016" lon="2.1429">
        <ele>663</ele>
        <time>2011-08-13T14:38:04.000Z</time>
      </trkpt>
      <trkpt lat="45.2012" lon="2.14266">
        <ele>662</ele>
        <time>2011-08-13T14:38:19.000Z</time>
      </trkpt>
      <trkpt lat="45.2007" lon="2.14261">
        <ele>663</ele>
        <time>2011-08-13T14:38:32.000Z</time>
      </trkpt>
      <trkpt lat="45.2003" lon="2.14241">
        <ele>667</ele>
        <time>2011-08-13T14:38:45.000Z</time>
      </trkpt>
      <trkpt lat="45.1999" lon="2.14207">
        <ele>673</ele>
        <time>2011-08-13T14:39:03.000Z</time>
      </trkpt>
      <trkpt lat="45.1994" lon="2.1418">
        <ele>676</ele>
        <time>2011-08-13T14:39:19.000Z</time>
      </trkpt>
      <trkpt lat="45.199" lon="2.14163">
        <ele>675</ele>
        <time>2011-08-13T14:39:32.000Z</time>
      </trkpt>
      <trkpt lat="45.1985" lon="2.1415">
        <ele>675</ele>
        <time>2011-08-13T14:39:42.000Z</time>
      </trkpt>
      <trkpt lat="45.198" lon="2.14136">
        <ele>675</ele>
        <time>2011-08-13T14:39:54.000Z</time>
      </trkpt>
      <trkpt lat="45.1975" lon="2.14121">
        <ele>673</ele>
        <time>2011-08-13T14:40:05.000Z</time>
      </trkpt>
      <trkpt lat="45.197" lon="2.14101">
        <ele>674</ele>
        <time>2011-08-13T14:40:14.000Z</time>
      </trkpt>
      <trkpt lat="45.1965" lon="2.14089">
        <ele>675</ele>
        <time>2011-08-13T14:40:22.000Z</time>
      </trkpt>
      <trkpt lat="45.196" lon="2.14076">
        <ele>676</ele>
        <time>2011-08-13T14:40:31.000Z</time>
      </trkpt>
      <trkpt lat="45.1956" lon="2.14062">
        <ele>677</ele>
        <time>2011-08-13T14:40:41.000Z</time>
      </trkpt>
      <trkpt lat="45.1952" lon="2.14091">
        <ele>674</ele>
        <time>2011-08-13T14:40:53.000Z</time>
      </trkpt>
      <trkpt lat="45.1947" lon="2.14105">
        <ele>669</ele>
        <time>2011-08-13T14:41:03.000Z</time>
      </trkpt>
      <trkpt lat="45.1942" lon="2.14123">
        <ele>669</ele>
        <time>2011-08-13T14:41:15.000Z</time>
      </trkpt>
      <trkpt lat="45.1938" lon="2.14149">
        <ele>670</ele>
        <time>2011-08-13T14:41:28.000Z</time>
      </trkpt>
      <trkpt lat="45.1932" lon="2.14152">
        <ele>674</ele>
        <time>2011-08-13T14:41:39.000Z</time>
      </trkpt>
      <trkpt lat="45.1928" lon="2.14131">
        <ele>677</ele>
        <time>2011-08-13T14:41:49.000Z</time>
      </trkpt>
      <trkpt lat="45.1924" lon="2.14091">
        <ele>688</ele>
        <time>2011-08-13T14:42:03.000Z</time>
      </trkpt>
      <trkpt lat="45.1921" lon="2.14044">
        <ele>694</ele>
        <time>2011-08-13T14:42:15.000Z</time>
      </trkpt>
      <trkpt lat="45.1918" lon="2.13984">
        <ele>696</ele>
        <time>2011-08-13T14:42:29.000Z</time>
      </trkpt>
      <trkpt lat="45.1917" lon="2.13925">
        <ele>701</ele>
        <time>2011-08-13T14:42:40.000Z</time>
      </trkpt>
      <trkpt lat="45.1916" lon="2.1386">
        <ele>708</ele>
        <time>2011-08-13T14:42:52.000Z</time>
      </trkpt>
      <trkpt lat="45.1913" lon="2.13807">
        <ele>711</ele>
        <time>2011-08-13T14:43:09.000Z</time>
      </trkpt>
      <trkpt lat="45.1913" lon="2.1374">
        <ele>717</ele>
        <time>2011-08-13T14:43:21.000Z</time>
      </trkpt>
      <trkpt lat="45.1915" lon="2.13687">
        <ele>713</ele>
        <time>2011-08-13T14:43:31.000Z</time>
      </trkpt>
      <trkpt lat="45.1918" lon="2.13621">
        <ele>715</ele>
        <time>2011-08-13T14:43:46.000Z</time>
      </trkpt>
      <trkpt lat="45.1919" lon="2.13556">
        <ele>713</ele>
        <time>2011-08-13T14:43:59.000Z</time>
      </trkpt>
      <trkpt lat="45.1918" lon="2.13493">
        <ele>713</ele>
        <time>2011-08-13T14:44:12.000Z</time>
      </trkpt>
      <trkpt lat="45.1915" lon="2.1345">
        <ele>717</ele>
        <time>2011-08-13T14:44:28.000Z</time>
      </trkpt>
      <trkpt lat="45.1911" lon="2.13423">
        <ele>720</ele>
        <time>2011-08-13T14:44:41.000Z</time>
      </trkpt>
      <trkpt lat="45.1906" lon="2.13398">
        <ele>721</ele>
        <time>2011-08-13T14:44:50.000Z</time>
      </trkpt>
      <trkpt lat="45.19" lon="2.1337">
        <ele>720</ele>
        <time>2011-08-13T14:44:59.000Z</time>
      </trkpt>
      <trkpt lat="45.1894" lon="2.13371">
        <ele>720</ele>
        <time>2011-08-13T14:45:07.000Z</time>
      </trkpt>
      <trkpt lat="45.1889" lon="2.13362">
        <ele>722</ele>
        <time>2011-08-13T14:45:12.000Z</time>
      </trkpt>
      <trkpt lat="45.1885" lon="2.13329">
        <ele>723</ele>
        <time>2011-08-13T14:45:17.000Z</time>
      </trkpt>
      <trkpt lat="45.1881" lon="2.13296">
        <ele>724</ele>
        <time>2011-08-13T14:45:22.000Z</time>
      </trkpt>
      <trkpt lat="45.1878" lon="2.13239">
        <ele>726</ele>
        <time>2011-08-13T14:45:27.000Z</time>
      </trkpt>
      <trkpt lat="45.1875" lon="2.13154">
        <ele>727</ele>
        <time>2011-08-13T14:45:32.000Z</time>
      </trkpt>
      <trkpt lat="45.1874" lon="2.13086">
        <ele>728</ele>
        <time>2011-08-13T14:45:36.000Z</time>
      </trkpt>
      <trkpt lat="45.1872" lon="2.13025">
        <ele>728</ele>
        <time>2011-08-13T14:45:40.000Z</time>
      </trkpt>
      <trkpt lat="45.1869" lon="2.12975">
        <ele>730</ele>
        <time>2011-08-13T14:45:44.000Z</time>
      </trkpt>
      <trkpt lat="45.1866" lon="2.12923">
        <ele>730</ele>
        <time>2011-08-13T14:45:48.000Z</time>
      </trkpt>
      <trkpt lat="45.1864" lon="2.12856">
        <ele>731</ele>
        <time>2011-08-13T14:45:52.000Z</time>
      </trkpt>
      <trkpt lat="45.1863" lon="2.12785">
        <ele>732</ele>
        <time>2011-08-13T14:45:56.000Z</time>
      </trkpt>
      <trkpt lat="45.1864" lon="2.12718">
        <ele>730</ele>
        <time>2011-08-13T14:46:00.000Z</time>
      </trkpt>
      <trkpt lat="45.1865" lon="2.12641">
        <ele>729</ele>
        <time>2011-08-13T14:46:05.000Z</time>
      </trkpt>
      <trkpt lat="45.1866" lon="2.12575">
        <ele>718</ele>
        <time>2011-08-13T14:46:09.000Z</time>
      </trkpt>
      <trkpt lat="45.1866" lon="2.1251">
        <ele>704</ele>
        <time>2011-08-13T14:46:14.000Z</time>
      </trkpt>
      <trkpt lat="45.1861" lon="2.12481">
        <ele>698</ele>
        <time>2011-08-13T14:46:21.000Z</time>
      </trkpt>
      <trkpt lat="45.1856" lon="2.12421">
        <ele>693</ele>
        <time>2011-08-13T14:46:29.000Z</time>
      </trkpt>
      <trkpt lat="45.1854" lon="2.12364">
        <ele>691</ele>
        <time>2011-08-13T14:46:33.000Z</time>
      </trkpt>
      <trkpt lat="45.1853" lon="2.12295">
        <ele>685</ele>
        <time>2011-08-13T14:46:37.000Z</time>
      </trkpt>
      <trkpt lat="45.1856" lon="2.12231">
        <ele>679</ele>
        <time>2011-08-13T14:46:41.000Z</time>
      </trkpt>
      <trkpt lat="45.1857" lon="2.12168">
        <ele>677</ele>
        <time>2011-08-13T14:46:46.000Z</time>
      </trkpt>
      <trkpt lat="45.1862" lon="2.12151">
        <ele>678</ele>
        <time>2011-08-13T14:46:54.000Z</time>
      </trkpt>
      <trkpt lat="45.1865" lon="2.12112">
        <ele>677</ele>
        <time>2011-08-13T14:47:03.000Z</time>
      </trkpt>
      <trkpt lat="45.1869" lon="2.12072">
        <ele>666</ele>
        <time>2011-08-13T14:47:11.000Z</time>
      </trkpt>
      <trkpt lat="45.1872" lon="2.12023">
        <ele>668</ele>
        <time>2011-08-13T14:47:21.000Z</time>
      </trkpt>
      <trkpt lat="45.187" lon="2.11965">
        <ele>659</ele>
        <time>2011-08-13T14:47:37.000Z</time>
      </trkpt>
      <trkpt lat="45.1866" lon="2.11925">
        <ele>659</ele>
        <time>2011-08-13T14:47:46.000Z</time>
      </trkpt>
      <trkpt lat="45.1868" lon="2.11855">
        <ele>658</ele>
        <time>2011-08-13T14:47:57.000Z</time>
      </trkpt>
      <trkpt lat="45.1867" lon="2.11775">
        <ele>663</ele>
        <time>2011-08-13T14:48:09.000Z</time>
      </trkpt>
      <trkpt lat="45.1867" lon="2.11706">
        <ele>671</ele>
        <time>2011-08-13T14:48:19.000Z</time>
      </trkpt>
      <trkpt lat="45.1868" lon="2.11641">
        <ele>674</ele>
        <time>2011-08-13T14:48:30.000Z</time>
      </trkpt>
      <trkpt lat="45.1869" lon="2.11572">
        <ele>679</ele>
        <time>2011-08-13T14:48:39.000Z</time>
      </trkpt>
      <trkpt lat="45.1872" lon="2.11522">
        <ele>677</ele>
        <time>2011-08-13T14:48:45.000Z</time>
      </trkpt>
      <trkpt lat="45.1877" lon="2.11476">
        <ele>670</ele>
        <time>2011-08-13T14:48:53.000Z</time>
      </trkpt>
      <trkpt lat="45.188" lon="2.11435">
        <ele>665</ele>
        <time>2011-08-13T14:49:01.000Z</time>
      </trkpt>
      <trkpt lat="45.1884" lon="2.11395">
        <ele>657</ele>
        <time>2011-08-13T14:49:09.000Z</time>
      </trkpt>
      <trkpt lat="45.1889" lon="2.11355">
        <ele>651</ele>
        <time>2011-08-13T14:49:18.000Z</time>
      </trkpt>
      <trkpt lat="45.189" lon="2.11289">
        <ele>651</ele>
        <time>2011-08-13T14:49:28.000Z</time>
      </trkpt>
      <trkpt lat="45.1887" lon="2.11234">
        <ele>647</ele>
        <time>2011-08-13T14:49:35.000Z</time>
      </trkpt>
      <trkpt lat="45.1882" lon="2.11186">
        <ele>646</ele>
        <time>2011-08-13T14:49:42.000Z</time>
      </trkpt>
      <trkpt lat="45.1877" lon="2.11157">
        <ele>646</ele>
        <time>2011-08-13T14:49:47.000Z</time>
      </trkpt>
      <trkpt lat="45.1873" lon="2.11125">
        <ele>644</ele>
        <time>2011-08-13T14:49:52.000Z</time>
      </trkpt>
      <trkpt lat="45.1869" lon="2.11082">
        <ele>644</ele>
        <time>2011-08-13T14:49:58.000Z</time>
      </trkpt>
      <trkpt lat="45.1866" lon="2.11031">
        <ele>641</ele>
        <time>2011-08-13T14:50:06.000Z</time>
      </trkpt>
      <trkpt lat="45.1862" lon="2.11007">
        <ele>643</ele>
        <time>2011-08-13T14:50:15.000Z</time>
      </trkpt>
      <trkpt lat="45.1857" lon="2.11006">
        <ele>645</ele>
        <time>2011-08-13T14:50:23.000Z</time>
      </trkpt>
      <trkpt lat="45.1852" lon="2.11019">
        <ele>644</ele>
        <time>2011-08-13T14:50:31.000Z</time>
      </trkpt>
      <trkpt lat="45.1848" lon="2.11022">
        <ele>642</ele>
        <time>2011-08-13T14:50:39.000Z</time>
      </trkpt>
      <trkpt lat="45.1843" lon="2.11021">
        <ele>640</ele>
        <time>2011-08-13T14:50:48.000Z</time>
      </trkpt>
      <trkpt lat="45.1838" lon="2.11002">
        <ele>641</ele>
        <time>2011-08-13T14:51:02.000Z</time>
      </trkpt>
      <trkpt lat="45.1833" lon="2.11015">
        <ele>643</ele>
        <time>2011-08-13T14:51:17.000Z</time>
      </trkpt>
      <trkpt lat="45.1829" lon="2.11038">
        <ele>644</ele>
        <time>2011-08-13T14:51:28.000Z</time>
      </trkpt>
      <trkpt lat="45.1824" lon="2.11046">
        <ele>646</ele>
        <time>2011-08-13T14:51:40.000Z</time>
      </trkpt>
      <trkpt lat="45.1819" lon="2.11045">
        <ele>650</ele>
        <time>2011-08-13T14:51:52.000Z</time>
      </trkpt>
      <trkpt lat="45.1814" lon="2.11042">
        <ele>658</ele>
        <time>2011-08-13T14:52:04.000Z</time>
      </trkpt>
      <trkpt lat="45.1809" lon="2.11042">
        <ele>658</ele>
        <time>2011-08-13T14:52:14.000Z</time>
      </trkpt>
      <trkpt lat="45.1805" lon="2.11017">
        <ele>655</ele>
        <time>2011-08-13T14:52:24.000Z</time>
      </trkpt>
      <trkpt lat="45.1801" lon="2.10984">
        <ele>654</ele>
        <time>2011-08-13T14:52:33.000Z</time>
      </trkpt>
      <trkpt lat="45.1797" lon="2.1094">
        <ele>651</ele>
        <time>2011-08-13T14:52:41.000Z</time>
      </trkpt>
      <trkpt lat="45.1794" lon="2.10888">
        <ele>655</ele>
        <time>2011-08-13T14:52:50.000Z</time>
      </trkpt>
      <trkpt lat="45.1791" lon="2.10821">
        <ele>654</ele>
        <time>2011-08-13T14:52:58.000Z</time>
      </trkpt>
      <trkpt lat="45.179" lon="2.1076">
        <ele>652</ele>
        <time>2011-08-13T14:53:04.000Z</time>
      </trkpt>
      <trkpt lat="45.1786" lon="2.10704">
        <ele>652</ele>
        <time>2011-08-13T14:53:11.000Z</time>
      </trkpt>
      <trkpt lat="45.1783" lon="2.10647">
        <ele>652</ele>
        <time>2011-08-13T14:53:17.000Z</time>
      </trkpt>
      <trkpt lat="45.1782" lon="2.10584">
        <ele>651</ele>
        <time>2011-08-13T14:53:23.000Z</time>
      </trkpt>
      <trkpt lat="45.178" lon="2.10504">
        <ele>649</ele>
        <time>2011-08-13T14:53:31.000Z</time>
      </trkpt>
      <trkpt lat="45.1779" lon="2.10425">
        <ele>646</ele>
        <time>2011-08-13T14:53:39.000Z</time>
      </trkpt>
      <trkpt lat="45.1777" lon="2.10361">
        <ele>649</ele>
        <time>2011-08-13T14:53:48.000Z</time>
      </trkpt>
      <trkpt lat="45.1775" lon="2.10303">
        <ele>658</ele>
        <time>2011-08-13T14:53:55.000Z</time>
      </trkpt>
      <trkpt lat="45.1774" lon="2.10234">
        <ele>671</ele>
        <time>2011-08-13T14:54:03.000Z</time>
      </trkpt>
      <trkpt lat="45.1777" lon="2.10174">
        <ele>672</ele>
        <time>2011-08-13T14:54:09.000Z</time>
      </trkpt>
      <trkpt lat="45.1777" lon="2.10105">
        <ele>672</ele>
        <time>2011-08-13T14:54:16.000Z</time>
      </trkpt>
      <trkpt lat="45.1777" lon="2.10041">
        <ele>672</ele>
        <time>2011-08-13T14:54:23.000Z</time>
      </trkpt>
      <trkpt lat="45.1776" lon="2.09975">
        <ele>670</ele>
        <time>2011-08-13T14:54:29.000Z</time>
      </trkpt>
      <trkpt lat="45.1776" lon="2.09906">
        <ele>669</ele>
        <time>2011-08-13T14:54:35.000Z</time>
      </trkpt>
      <trkpt lat="45.1775" lon="2.09843">
        <ele>668</ele>
        <time>2011-08-13T14:54:41.000Z</time>
      </trkpt>
      <trkpt lat="45.1775" lon="2.09765">
        <ele>666</ele>
        <time>2011-08-13T14:54:47.000Z</time>
      </trkpt>
      <trkpt lat="45.1775" lon="2.09691">
        <ele>656</ele>
        <time>2011-08-13T14:54:53.000Z</time>
      </trkpt>
      <trkpt lat="45.1775" lon="2.09615">
        <ele>649</ele>
        <time>2011-08-13T14:54:59.000Z</time>
      </trkpt>
      <trkpt lat="45.1774" lon="2.09551">
        <ele>640</ele>
        <time>2011-08-13T14:55:04.000Z</time>
      </trkpt>
      <trkpt lat="45.1773" lon="2.09482">
        <ele>638</ele>
        <time>2011-08-13T14:55:10.000Z</time>
      </trkpt>
      <trkpt lat="45.1773" lon="2.09412">
        <ele>635</ele>
        <time>2011-08-13T14:55:16.000Z</time>
      </trkpt>
      <trkpt lat="45.1773" lon="2.09341">
        <ele>630</ele>
        <time>2011-08-13T14:55:22.000Z</time>
      </trkpt>
      <trkpt lat="45.1772" lon="2.09277">
        <ele>629</ele>
        <time>2011-08-13T14:55:28.000Z</time>
      </trkpt>
      <trkpt lat="45.1771" lon="2.0921">
        <ele>629</ele>
        <time>2011-08-13T14:55:35.000Z</time>
      </trkpt>
      <trkpt lat="45.1771" lon="2.09141">
        <ele>627</ele>
        <time>2011-08-13T14:55:42.000Z</time>
      </trkpt>
      <trkpt lat="45.1771" lon="2.0907">
        <ele>625</ele>
        <time>2011-08-13T14:55:49.000Z</time>
      </trkpt>
      <trkpt lat="45.177" lon="2.09007">
        <ele>624</ele>
        <time>2011-08-13T14:55:56.000Z</time>
      </trkpt>
      <trkpt lat="45.177" lon="2.0894">
        <ele>626</ele>
        <time>2011-08-13T14:56:03.000Z</time>
      </trkpt>
      <trkpt lat="45.1769" lon="2.08872">
        <ele>624</ele>
        <time>2011-08-13T14:56:10.000Z</time>
      </trkpt>
      <trkpt lat="45.1769" lon="2.08799">
        <ele>623</ele>
        <time>2011-08-13T14:56:17.000Z</time>
      </trkpt>
      <trkpt lat="45.1768" lon="2.08729">
        <ele>622</ele>
        <time>2011-08-13T14:56:24.000Z</time>
      </trkpt>
      <trkpt lat="45.1765" lon="2.08677">
        <ele>618</ele>
        <time>2011-08-13T14:56:31.000Z</time>
      </trkpt>
      <trkpt lat="45.1761" lon="2.08631">
        <ele>618</ele>
        <time>2011-08-13T14:56:38.000Z</time>
      </trkpt>
      <trkpt lat="45.1758" lon="2.08585">
        <ele>616</ele>
        <time>2011-08-13T14:56:44.000Z</time>
      </trkpt>
      <trkpt lat="45.1754" lon="2.08543">
        <ele>617</ele>
        <time>2011-08-13T14:56:52.000Z</time>
      </trkpt>
      <trkpt lat="45.1751" lon="2.08491">
        <ele>614</ele>
        <time>2011-08-13T14:57:04.000Z</time>
      </trkpt>
      <trkpt lat="45.175" lon="2.08425">
        <ele>613</ele>
        <time>2011-08-13T14:57:13.000Z</time>
      </trkpt>
      <trkpt lat="45.1753" lon="2.08372">
        <ele>613</ele>
        <time>2011-08-13T14:57:22.000Z</time>
      </trkpt>
      <trkpt lat="45.1754" lon="2.08311">
        <ele>611</ele>
        <time>2011-08-13T14:57:31.000Z</time>
      </trkpt>
      <trkpt lat="45.1754" lon="2.08237">
        <ele>608</ele>
        <time>2011-08-13T14:57:38.000Z</time>
      </trkpt>
      <trkpt lat="45.1756" lon="2.08168">
        <ele>609</ele>
        <time>2011-08-13T14:57:44.000Z</time>
      </trkpt>
      <trkpt lat="45.1759" lon="2.08107">
        <ele>600</ele>
        <time>2011-08-13T14:57:49.000Z</time>
      </trkpt>
      <trkpt lat="45.1762" lon="2.08052">
        <ele>597</ele>
        <time>2011-08-13T14:57:55.000Z</time>
      </trkpt>
      <trkpt lat="45.1763" lon="2.07989">
        <ele>594</ele>
        <time>2011-08-13T14:58:02.000Z</time>
      </trkpt>
      <trkpt lat="45.1761" lon="2.07917">
        <ele>598</ele>
        <time>2011-08-13T14:58:14.000Z</time>
      </trkpt>
      <trkpt lat="45.176" lon="2.07853">
        <ele>603</ele>
        <time>2011-08-13T14:58:24.000Z</time>
      </trkpt>
      <trkpt lat="45.176" lon="2.07786">
        <ele>603</ele>
        <time>2011-08-13T14:58:34.000Z</time>
      </trkpt>
      <trkpt lat="45.1762" lon="2.07704">
        <ele>600</ele>
        <time>2011-08-13T14:58:42.000Z</time>
      </trkpt>
      <trkpt lat="45.1761" lon="2.07637">
        <ele>601</ele>
        <time>2011-08-13T14:58:48.000Z</time>
      </trkpt>
      <trkpt lat="45.1758" lon="2.07588">
        <ele>600</ele>
        <time>2011-08-13T14:58:55.000Z</time>
      </trkpt>
      <trkpt lat="45.1756" lon="2.07529">
        <ele>603</ele>
        <time>2011-08-13T14:59:03.000Z</time>
      </trkpt>
      <trkpt lat="45.1757" lon="2.0745">
        <ele>600</ele>
        <time>2011-08-13T14:59:10.000Z</time>
      </trkpt>
      <trkpt lat="45.1758" lon="2.07383">
        <ele>597</ele>
        <time>2011-08-13T14:59:16.000Z</time>
      </trkpt>
      <trkpt lat="45.1759" lon="2.07319">
        <ele>595</ele>
        <time>2011-08-13T14:59:22.000Z</time>
      </trkpt>
      <trkpt lat="45.1757" lon="2.07261">
        <ele>596</ele>
        <time>2011-08-13T14:59:30.000Z</time>
      </trkpt>
      <trkpt lat="45.1754" lon="2.07209">
        <ele>601</ele>
        <time>2011-08-13T14:59:39.000Z</time>
      </trkpt>
      <trkpt lat="45.1751" lon="2.07148">
        <ele>604</ele>
        <time>2011-08-13T14:59:47.000Z</time>
      </trkpt>
      <trkpt lat="45.175" lon="2.07075">
        <ele>605</ele>
        <time>2011-08-13T14:59:54.000Z</time>
      </trkpt>
      <trkpt lat="45.1749" lon="2.07012">
        <ele>603</ele>
        <time>2011-08-13T15:00:02.000Z</time>
      </trkpt>
      <trkpt lat="45.1749" lon="2.06949">
        <ele>601</ele>
        <time>2011-08-13T15:00:10.000Z</time>
      </trkpt>
      <trkpt lat="45.1749" lon="2.06879">
        <ele>605</ele>
        <time>2011-08-13T15:00:20.000Z</time>
      </trkpt>
      <trkpt lat="45.1749" lon="2.06813">
        <ele>610</ele>
        <time>2011-08-13T15:00:27.000Z</time>
      </trkpt>
      <trkpt lat="45.1751" lon="2.0675">
        <ele>612</ele>
        <time>2011-08-13T15:00:37.000Z</time>
      </trkpt>
      <trkpt lat="45.1751" lon="2.06686">
        <ele>610</ele>
        <time>2011-08-13T15:00:48.000Z</time>
      </trkpt>
      <trkpt lat="45.1752" lon="2.06621">
        <ele>609</ele>
        <time>2011-08-13T15:00:59.000Z</time>
      </trkpt>
      <trkpt lat="45.1753" lon="2.06556">
        <ele>602</ele>
        <time>2011-08-13T15:01:10.000Z</time>
      </trkpt>
      <trkpt lat="45.1751" lon="2.06491">
        <ele>606</ele>
        <time>2011-08-13T15:01:25.000Z</time>
      </trkpt>
      <trkpt lat="45.175" lon="2.06433">
        <ele>610</ele>
        <time>2011-08-13T15:01:38.000Z</time>
      </trkpt>
      <trkpt lat="45.1747" lon="2.06367">
        <ele>614</ele>
        <time>2011-08-13T15:01:53.000Z</time>
      </trkpt>
      <trkpt lat="45.1745" lon="2.06296">
        <ele>613</ele>
        <time>2011-08-13T15:02:05.000Z</time>
      </trkpt>
      <trkpt lat="45.1743" lon="2.0623">
        <ele>613</ele>
        <time>2011-08-13T15:02:17.000Z</time>
      </trkpt>
      <trkpt lat="45.1741" lon="2.06164">
        <ele>618</ele>
        <time>2011-08-13T15:02:29.000Z</time>
      </trkpt>
      <trkpt lat="45.1739" lon="2.06092">
        <ele>617</ele>
        <time>2011-08-13T15:02:37.000Z</time>
      </trkpt>
      <trkpt lat="45.1737" lon="2.0603">
        <ele>616</ele>
        <time>2011-08-13T15:02:45.000Z</time>
      </trkpt>
      <trkpt lat="45.1735" lon="2.0595">
        <ele>614</ele>
        <time>2011-08-13T15:02:53.000Z</time>
      </trkpt>
      <trkpt lat="45.1733" lon="2.05889">
        <ele>613</ele>
        <time>2011-08-13T15:02:59.000Z</time>
      </trkpt>
      <trkpt lat="45.1731" lon="2.05836">
        <ele>605</ele>
        <time>2011-08-13T15:03:05.000Z</time>
      </trkpt>
      <trkpt lat="45.1728" lon="2.05774">
        <ele>601</ele>
        <time>2011-08-13T15:03:13.000Z</time>
      </trkpt>
      <trkpt lat="45.1725" lon="2.05714">
        <ele>602</ele>
        <time>2011-08-13T15:03:20.000Z</time>
      </trkpt>
      <trkpt lat="45.1723" lon="2.05659">
        <ele>600</ele>
        <time>2011-08-13T15:03:27.000Z</time>
      </trkpt>
      <trkpt lat="45.172" lon="2.05603">
        <ele>600</ele>
        <time>2011-08-13T15:03:35.000Z</time>
      </trkpt>
      <trkpt lat="45.1715" lon="2.05577">
        <ele>603</ele>
        <time>2011-08-13T15:03:44.000Z</time>
      </trkpt>
      <trkpt lat="45.1711" lon="2.0555">
        <ele>604</ele>
        <time>2011-08-13T15:03:52.000Z</time>
      </trkpt>
      <trkpt lat="45.1707" lon="2.05515">
        <ele>610</ele>
        <time>2011-08-13T15:04:00.000Z</time>
      </trkpt>
      <trkpt lat="45.1704" lon="2.05465">
        <ele>617</ele>
        <time>2011-08-13T15:04:08.000Z</time>
      </trkpt>
      <trkpt lat="45.1702" lon="2.05399">
        <ele>621</ele>
        <time>2011-08-13T15:04:15.000Z</time>
      </trkpt>
      <trkpt lat="45.1701" lon="2.05336">
        <ele>623</ele>
        <time>2011-08-13T15:04:22.000Z</time>
      </trkpt>
      <trkpt lat="45.17" lon="2.05268">
        <ele>623</ele>
        <time>2011-08-13T15:04:31.000Z</time>
      </trkpt>
      <trkpt lat="45.1699" lon="2.05201">
        <ele>626</ele>
        <time>2011-08-13T15:04:40.000Z</time>
      </trkpt>
      <trkpt lat="45.1698" lon="2.05137">
        <ele>625</ele>
        <time>2011-08-13T15:04:48.000Z</time>
      </trkpt>
      <trkpt lat="45.1696" lon="2.05068">
        <ele>620</ele>
        <time>2011-08-13T15:04:58.000Z</time>
      </trkpt>
      <trkpt lat="45.1694" lon="2.05011">
        <ele>614</ele>
        <time>2011-08-13T15:05:07.000Z</time>
      </trkpt>
      <trkpt lat="45.1692" lon="2.04958">
        <ele>610</ele>
        <time>2011-08-13T15:05:17.000Z</time>
      </trkpt>
      <trkpt lat="45.1689" lon="2.04898">
        <ele>609</ele>
        <time>2011-08-13T15:05:26.000Z</time>
      </trkpt>
      <trkpt lat="45.1686" lon="2.04844">
        <ele>611</ele>
        <time>2011-08-13T15:05:36.000Z</time>
      </trkpt>
      <trkpt lat="45.1682" lon="2.04788">
        <ele>616</ele>
        <time>2011-08-13T15:05:46.000Z</time>
      </trkpt>
      <trkpt lat="45.1678" lon="2.04731">
        <ele>617</ele>
        <time>2011-08-13T15:05:54.000Z</time>
      </trkpt>
      <trkpt lat="45.1675" lon="2.04686">
        <ele>615</ele>
        <time>2011-08-13T15:06:00.000Z</time>
      </trkpt>
      <trkpt lat="45.1672" lon="2.04644">
        <ele>611</ele>
        <time>2011-08-13T15:06:06.000Z</time>
      </trkpt>
      <trkpt lat="45.1668" lon="2.04597">
        <ele>607</ele>
        <time>2011-08-13T15:06:12.000Z</time>
      </trkpt>
      <trkpt lat="45.1663" lon="2.04562">
        <ele>605</ele>
        <time>2011-08-13T15:06:18.000Z</time>
      </trkpt>
      <trkpt lat="45.1658" lon="2.04531">
        <ele>600</ele>
        <time>2011-08-13T15:06:24.000Z</time>
      </trkpt>
      <trkpt lat="45.1654" lon="2.0451">
        <ele>598</ele>
        <time>2011-08-13T15:06:30.000Z</time>
      </trkpt>
      <trkpt lat="45.1649" lon="2.04515">
        <ele>595</ele>
        <time>2011-08-13T15:06:36.000Z</time>
      </trkpt>
      <trkpt lat="45.1644" lon="2.04518">
        <ele>588</ele>
        <time>2011-08-13T15:06:42.000Z</time>
      </trkpt>
      <trkpt lat="45.1639" lon="2.04543">
        <ele>588</ele>
        <time>2011-08-13T15:06:50.000Z</time>
      </trkpt>
      <trkpt lat="45.1634" lon="2.04567">
        <ele>586</ele>
        <time>2011-08-13T15:06:58.000Z</time>
      </trkpt>
      <trkpt lat="45.163" lon="2.04582">
        <ele>583</ele>
        <time>2011-08-13T15:07:07.000Z</time>
      </trkpt>
      <trkpt lat="45.1625" lon="2.04579">
        <ele>583</ele>
        <time>2011-08-13T15:07:12.000Z</time>
      </trkpt>
      <trkpt lat="45.162" lon="2.04554">
        <ele>589</ele>
        <time>2011-08-13T15:07:18.000Z</time>
      </trkpt>
      <trkpt lat="45.1616" lon="2.04522">
        <ele>591</ele>
        <time>2011-08-13T15:07:27.000Z</time>
      </trkpt>
      <trkpt lat="45.1611" lon="2.045">
        <ele>594</ele>
        <time>2011-08-13T15:07:36.000Z</time>
      </trkpt>
      <trkpt lat="45.1607" lon="2.04472">
        <ele>595</ele>
        <time>2011-08-13T15:07:47.000Z</time>
      </trkpt>
      <trkpt lat="45.1602" lon="2.04441">
        <ele>597</ele>
        <time>2011-08-13T15:07:58.000Z</time>
      </trkpt>
      <trkpt lat="45.1598" lon="2.04399">
        <ele>602</ele>
        <time>2011-08-13T15:08:07.000Z</time>
      </trkpt>
      <trkpt lat="45.1594" lon="2.04359">
        <ele>599</ele>
        <time>2011-08-13T15:08:14.000Z</time>
      </trkpt>
      <trkpt lat="45.1591" lon="2.04316">
        <ele>602</ele>
        <time>2011-08-13T15:08:20.000Z</time>
      </trkpt>
      <trkpt lat="45.1587" lon="2.04266">
        <ele>607</ele>
        <time>2011-08-13T15:08:26.000Z</time>
      </trkpt>
      <trkpt lat="45.1584" lon="2.04215">
        <ele>608</ele>
        <time>2011-08-13T15:08:32.000Z</time>
      </trkpt>
      <trkpt lat="45.158" lon="2.04165">
        <ele>604</ele>
        <time>2011-08-13T15:08:39.000Z</time>
      </trkpt>
      <trkpt lat="45.1578" lon="2.04113">
        <ele>594</ele>
        <time>2011-08-13T15:08:46.000Z</time>
      </trkpt>
      <trkpt lat="45.1574" lon="2.04075">
        <ele>588</ele>
        <time>2011-08-13T15:08:54.000Z</time>
      </trkpt>
      <trkpt lat="45.1569" lon="2.04042">
        <ele>587</ele>
        <time>2011-08-13T15:09:03.000Z</time>
      </trkpt>
      <trkpt lat="45.1565" lon="2.04011">
        <ele>588</ele>
        <time>2011-08-13T15:09:11.000Z</time>
      </trkpt>
      <trkpt lat="45.1561" lon="2.03976">
        <ele>588</ele>
        <time>2011-08-13T15:09:18.000Z</time>
      </trkpt>
      <trkpt lat="45.1558" lon="2.0393">
        <ele>590</ele>
        <time>2011-08-13T15:09:23.000Z</time>
      </trkpt>
      <trkpt lat="45.1556" lon="2.03867">
        <ele>591</ele>
        <time>2011-08-13T15:09:28.000Z</time>
      </trkpt>
      <trkpt lat="45.1556" lon="2.03796">
        <ele>586</ele>
        <time>2011-08-13T15:09:34.000Z</time>
      </trkpt>
      <trkpt lat="45.1557" lon="2.03724">
        <ele>579</ele>
        <time>2011-08-13T15:09:40.000Z</time>
      </trkpt>
      <trkpt lat="45.1557" lon="2.03659">
        <ele>575</ele>
        <time>2011-08-13T15:09:46.000Z</time>
      </trkpt>
      <trkpt lat="45.1557" lon="2.03593">
        <ele>571</ele>
        <time>2011-08-13T15:09:52.000Z</time>
      </trkpt>
      <trkpt lat="45.1556" lon="2.0353">
        <ele>568</ele>
        <time>2011-08-13T15:09:59.000Z</time>
      </trkpt>
      <trkpt lat="45.1551" lon="2.03499">
        <ele>571</ele>
        <time>2011-08-13T15:10:08.000Z</time>
      </trkpt>
      <trkpt lat="45.1547" lon="2.03448">
        <ele>576</ele>
        <time>2011-08-13T15:10:15.000Z</time>
      </trkpt>
      <trkpt lat="45.1545" lon="2.03389">
        <ele>582</ele>
        <time>2011-08-13T15:10:20.000Z</time>
      </trkpt>
      <trkpt lat="45.1545" lon="2.03316">
        <ele>577</ele>
        <time>2011-08-13T15:10:27.000Z</time>
      </trkpt>
      <trkpt lat="45.1543" lon="2.03254">
        <ele>577</ele>
        <time>2011-08-13T15:10:35.000Z</time>
      </trkpt>
      <trkpt lat="45.1539" lon="2.03188">
        <ele>577</ele>
        <time>2011-08-13T15:10:43.000Z</time>
      </trkpt>
      <trkpt lat="45.1536" lon="2.03131">
        <ele>589</ele>
        <time>2011-08-13T15:10:51.000Z</time>
      </trkpt>
      <trkpt lat="45.1533" lon="2.03072">
        <ele>582</ele>
        <time>2011-08-13T15:10:59.000Z</time>
      </trkpt>
      <trkpt lat="45.153" lon="2.03017">
        <ele>577</ele>
        <time>2011-08-13T15:11:08.000Z</time>
      </trkpt>
      <trkpt lat="45.1526" lon="2.02979">
        <ele>579</ele>
        <time>2011-08-13T15:11:17.000Z</time>
      </trkpt>
      <trkpt lat="45.1522" lon="2.02942">
        <ele>580</ele>
        <time>2011-08-13T15:11:24.000Z</time>
      </trkpt>
      <trkpt lat="45.1519" lon="2.02899">
        <ele>586</ele>
        <time>2011-08-13T15:11:31.000Z</time>
      </trkpt>
      <trkpt lat="45.1515" lon="2.02848">
        <ele>589</ele>
        <time>2011-08-13T15:11:39.000Z</time>
      </trkpt>
      <trkpt lat="45.1511" lon="2.02804">
        <ele>579</ele>
        <time>2011-08-13T15:11:48.000Z</time>
      </trkpt>
      <trkpt lat="45.1506" lon="2.0278">
        <ele>577</ele>
        <time>2011-08-13T15:11:56.000Z</time>
      </trkpt>
      <trkpt lat="45.1502" lon="2.02743">
        <ele>580</ele>
        <time>2011-08-13T15:12:04.000Z</time>
      </trkpt>
      <trkpt lat="45.1497" lon="2.02709">
        <ele>583</ele>
        <time>2011-08-13T15:12:12.000Z</time>
      </trkpt>
      <trkpt lat="45.1493" lon="2.02667">
        <ele>581</ele>
        <time>2011-08-13T15:12:20.000Z</time>
      </trkpt>
      <trkpt lat="45.1489" lon="2.02633">
        <ele>580</ele>
        <time>2011-08-13T15:12:28.000Z</time>
      </trkpt>
      <trkpt lat="45.1484" lon="2.02607">
        <ele>575</ele>
        <time>2011-08-13T15:12:35.000Z</time>
      </trkpt>
      <trkpt lat="45.1479" lon="2.02596">
        <ele>565</ele>
        <time>2011-08-13T15:12:42.000Z</time>
      </trkpt>
      <trkpt lat="45.1474" lon="2.02605">
        <ele>561</ele>
        <time>2011-08-13T15:12:49.000Z</time>
      </trkpt>
      <trkpt lat="45.1469" lon="2.02612">
        <ele>557</ele>
        <time>2011-08-13T15:12:55.000Z</time>
      </trkpt>
      <trkpt lat="45.1465" lon="2.02637">
        <ele>554</ele>
        <time>2011-08-13T15:13:01.000Z</time>
      </trkpt>
      <trkpt lat="45.146" lon="2.02664">
        <ele>551</ele>
        <time>2011-08-13T15:13:07.000Z</time>
      </trkpt>
      <trkpt lat="45.1455" lon="2.02675">
        <ele>550</ele>
        <time>2011-08-13T15:13:13.000Z</time>
      </trkpt>
      <trkpt lat="45.1449" lon="2.02663">
        <ele>549</ele>
        <time>2011-08-13T15:13:21.000Z</time>
      </trkpt>
      <trkpt lat="45.1445" lon="2.02649">
        <ele>547</ele>
        <time>2011-08-13T15:13:27.000Z</time>
      </trkpt>
      <trkpt lat="45.144" lon="2.02671">
        <ele>539</ele>
        <time>2011-08-13T15:13:35.000Z</time>
      </trkpt>
      <trkpt lat="45.1437" lon="2.02727">
        <ele>541</ele>
        <time>2011-08-13T15:13:45.000Z</time>
      </trkpt>
      <trkpt lat="45.1437" lon="2.02793">
        <ele>544</ele>
        <time>2011-08-13T15:13:53.000Z</time>
      </trkpt>
      <trkpt lat="45.1434" lon="2.02852">
        <ele>540</ele>
        <time>2011-08-13T15:14:01.000Z</time>
      </trkpt>
      <trkpt lat="45.1429" lon="2.02848">
        <ele>541</ele>
        <time>2011-08-13T15:14:09.000Z</time>
      </trkpt>
      <trkpt lat="45.1425" lon="2.02823">
        <ele>546</ele>
        <time>2011-08-13T15:14:17.000Z</time>
      </trkpt>
      <trkpt lat="45.142" lon="2.02805">
        <ele>549</ele>
        <time>2011-08-13T15:14:24.000Z</time>
      </trkpt>
      <trkpt lat="45.1415" lon="2.02802">
        <ele>553</ele>
        <time>2011-08-13T15:14:31.000Z</time>
      </trkpt>
      <trkpt lat="45.1411" lon="2.02833">
        <ele>549</ele>
        <time>2011-08-13T15:14:39.000Z</time>
      </trkpt>
      <trkpt lat="45.1406" lon="2.02848">
        <ele>545</ele>
        <time>2011-08-13T15:14:47.000Z</time>
      </trkpt>
      <trkpt lat="45.1401" lon="2.02852">
        <ele>543</ele>
        <time>2011-08-13T15:14:55.000Z</time>
      </trkpt>
      <trkpt lat="45.1395" lon="2.02866">
        <ele>545</ele>
        <time>2011-08-13T15:15:00.000Z</time>
      </trkpt>
      <trkpt lat="45.1391" lon="2.02819">
        <ele>545</ele>
        <time>2011-08-13T15:15:06.000Z</time>
      </trkpt>
      <trkpt lat="45.1387" lon="2.02766">
        <ele>544</ele>
        <time>2011-08-13T15:15:11.000Z</time>
      </trkpt>
      <trkpt lat="45.1383" lon="2.02745">
        <ele>544</ele>
        <time>2011-08-13T15:15:16.000Z</time>
      </trkpt>
      <trkpt lat="45.1378" lon="2.02707">
        <ele>535</ele>
        <time>2011-08-13T15:15:21.000Z</time>
      </trkpt>
      <trkpt lat="45.1375" lon="2.02656">
        <ele>532</ele>
        <time>2011-08-13T15:15:26.000Z</time>
      </trkpt>
      <trkpt lat="45.1375" lon="2.02586">
        <ele>527</ele>
        <time>2011-08-13T15:15:31.000Z</time>
      </trkpt>
      <trkpt lat="45.1377" lon="2.02513">
        <ele>515</ele>
        <time>2011-08-13T15:15:38.000Z</time>
      </trkpt>
      <trkpt lat="45.1382" lon="2.02474">
        <ele>510</ele>
        <time>2011-08-13T15:15:46.000Z</time>
      </trkpt>
      <trkpt lat="45.1384" lon="2.02412">
        <ele>509</ele>
        <time>2011-08-13T15:15:58.000Z</time>
      </trkpt>
      <trkpt lat="45.1379" lon="2.02438">
        <ele>516</ele>
        <time>2011-08-13T15:16:09.000Z</time>
      </trkpt>
      <trkpt lat="45.1374" lon="2.02449">
        <ele>521</ele>
        <time>2011-08-13T15:16:19.000Z</time>
      </trkpt>
      <trkpt lat="45.1371" lon="2.02397">
        <ele>520</ele>
        <time>2011-08-13T15:16:27.000Z</time>
      </trkpt>
      <trkpt lat="45.1367" lon="2.02387">
        <ele>525</ele>
        <time>2011-08-13T15:16:41.000Z</time>
      </trkpt>
      <trkpt lat="45.1362" lon="2.02379">
        <ele>527</ele>
        <time>2011-08-13T15:16:55.000Z</time>
      </trkpt>
      <trkpt lat="45.1358" lon="2.02347">
        <ele>528</ele>
        <time>2011-08-13T15:17:08.000Z</time>
      </trkpt>
      <trkpt lat="45.1353" lon="2.02324">
        <ele>529</ele>
        <time>2011-08-13T15:17:23.000Z</time>
      </trkpt>
      <trkpt lat="45.135" lon="2.02269">
        <ele>526</ele>
        <time>2011-08-13T15:17:33.000Z</time>
      </trkpt>
      <trkpt lat="45.135" lon="2.02202">
        <ele>522</ele>
        <time>2011-08-13T15:17:45.000Z</time>
      </trkpt>
      <trkpt lat="45.1351" lon="2.0213">
        <ele>520</ele>
        <time>2011-08-13T15:17:59.000Z</time>
      </trkpt>
      <trkpt lat="45.1352" lon="2.02066">
        <ele>519</ele>
        <time>2011-08-13T15:18:08.000Z</time>
      </trkpt>
      <trkpt lat="45.1352" lon="2.01992">
        <ele>527</ele>
        <time>2011-08-13T15:18:19.000Z</time>
      </trkpt>
      <trkpt lat="45.1349" lon="2.01937">
        <ele>528</ele>
        <time>2011-08-13T15:18:28.000Z</time>
      </trkpt>
      <trkpt lat="45.1346" lon="2.01891">
        <ele>528</ele>
        <time>2011-08-13T15:18:36.000Z</time>
      </trkpt>
      <trkpt lat="45.1343" lon="2.01839">
        <ele>526</ele>
        <time>2011-08-13T15:18:44.000Z</time>
      </trkpt>
      <trkpt lat="45.1339" lon="2.01791">
        <ele>522</ele>
        <time>2011-08-13T15:18:51.000Z</time>
      </trkpt>
      <trkpt lat="45.1334" lon="2.01765">
        <ele>521</ele>
        <time>2011-08-13T15:18:58.000Z</time>
      </trkpt>
      <trkpt lat="45.133" lon="2.0177">
        <ele>523</ele>
        <time>2011-08-13T15:19:05.000Z</time>
      </trkpt>
      <trkpt lat="45.1327" lon="2.01716">
        <ele>512</ele>
        <time>2011-08-13T15:22:03.000Z</time>
      </trkpt>
      <trkpt lat="45.1331" lon="2.01646">
        <ele>508</ele>
        <time>2011-08-13T15:22:14.000Z</time>
      </trkpt>
      <trkpt lat="45.1335" lon="2.0161">
        <ele>508</ele>
        <time>2011-08-13T15:22:20.000Z</time>
      </trkpt>
      <trkpt lat="45.1338" lon="2.01554">
        <ele>503</ele>
        <time>2011-08-13T15:22:26.000Z</time>
      </trkpt>
      <trkpt lat="45.1341" lon="2.01501">
        <ele>498</ele>
        <time>2011-08-13T15:22:31.000Z</time>
      </trkpt>
      <trkpt lat="45.1346" lon="2.01459">
        <ele>498</ele>
        <time>2011-08-13T15:22:36.000Z</time>
      </trkpt>
      <trkpt lat="45.1349" lon="2.01403">
        <ele>497</ele>
        <time>2011-08-13T15:22:42.000Z</time>
      </trkpt>
      <trkpt lat="45.135" lon="2.0134">
        <ele>493</ele>
        <time>2011-08-13T15:22:47.000Z</time>
      </trkpt>
      <trkpt lat="45.135" lon="2.0127">
        <ele>489</ele>
        <time>2011-08-13T15:22:52.000Z</time>
      </trkpt>
      <trkpt lat="45.1352" lon="2.01187">
        <ele>484</ele>
        <time>2011-08-13T15:22:58.000Z</time>
      </trkpt>
      <trkpt lat="45.1355" lon="2.01128">
        <ele>480</ele>
        <time>2011-08-13T15:23:03.000Z</time>
      </trkpt>
      <trkpt lat="45.1359" lon="2.01081">
        <ele>479</ele>
        <time>2011-08-13T15:23:07.000Z</time>
      </trkpt>
      <trkpt lat="45.1363" lon="2.01035">
        <ele>479</ele>
        <time>2011-08-13T15:23:12.000Z</time>
      </trkpt>
      <trkpt lat="45.1368" lon="2.01007">
        <ele>479</ele>
        <time>2011-08-13T15:23:16.000Z</time>
      </trkpt>
      <trkpt lat="45.1374" lon="2.0102">
        <ele>478</ele>
        <time>2011-08-13T15:23:22.000Z</time>
      </trkpt>
      <trkpt lat="45.1378" lon="2.01042">
        <ele>478</ele>
        <time>2011-08-13T15:23:27.000Z</time>
      </trkpt>
      <trkpt lat="45.1383" lon="2.01061">
        <ele>480</ele>
        <time>2011-08-13T15:23:31.000Z</time>
      </trkpt>
      <trkpt lat="45.1388" lon="2.01086">
        <ele>480</ele>
        <time>2011-08-13T15:23:35.000Z</time>
      </trkpt>
      <trkpt lat="45.1393" lon="2.01113">
        <ele>481</ele>
        <time>2011-08-13T15:23:39.000Z</time>
      </trkpt>
      <trkpt lat="45.1397" lon="2.0114">
        <ele>481</ele>
        <time>2011-08-13T15:23:43.000Z</time>
      </trkpt>
      <trkpt lat="45.1402" lon="2.01142">
        <ele>480</ele>
        <time>2011-08-13T15:23:47.000Z</time>
      </trkpt>
      <trkpt lat="45.1407" lon="2.01121">
        <ele>478</ele>
        <time>2011-08-13T15:23:51.000Z</time>
      </trkpt>
      <trkpt lat="45.1411" lon="2.01114">
        <ele>477</ele>
        <time>2011-08-13T15:23:55.000Z</time>
      </trkpt>
      <trkpt lat="45.1417" lon="2.01109">
        <ele>476</ele>
        <time>2011-08-13T15:23:59.000Z</time>
      </trkpt>
      <trkpt lat="45.1421" lon="2.01092">
        <ele>477</ele>
        <time>2011-08-13T15:24:03.000Z</time>
      </trkpt>
      <trkpt lat="45.1426" lon="2.01076">
        <ele>474</ele>
        <time>2011-08-13T15:24:07.000Z</time>
      </trkpt>
      <trkpt lat="45.1431" lon="2.01044">
        <ele>471</ele>
        <time>2011-08-13T15:24:11.000Z</time>
      </trkpt>
      <trkpt lat="45.1435" lon="2.01002">
        <ele>468</ele>
        <time>2011-08-13T15:24:15.000Z</time>
      </trkpt>
      <trkpt lat="45.1439" lon="2.00975">
        <ele>467</ele>
        <time>2011-08-13T15:24:18.000Z</time>
      </trkpt>
      <trkpt lat="45.1444" lon="2.00946">
        <ele>465</ele>
        <time>2011-08-13T15:24:22.000Z</time>
      </trkpt>
      <trkpt lat="45.1449" lon="2.00934">
        <ele>460</ele>
        <time>2011-08-13T15:24:27.000Z</time>
      </trkpt>
      <trkpt lat="45.1453" lon="2.00992">
        <ele>452</ele>
        <time>2011-08-13T15:24:32.000Z</time>
      </trkpt>
      <trkpt lat="45.1454" lon="2.01057">
        <ele>449</ele>
        <time>2011-08-13T15:24:36.000Z</time>
      </trkpt>
      <trkpt lat="45.1456" lon="2.01122">
        <ele>447</ele>
        <time>2011-08-13T15:24:40.000Z</time>
      </trkpt>
      <trkpt lat="45.1456" lon="2.01196">
        <ele>441</ele>
        <time>2011-08-13T15:24:45.000Z</time>
      </trkpt>
      <trkpt lat="45.1461" lon="2.01208">
        <ele>441</ele>
        <time>2011-08-13T15:24:52.000Z</time>
      </trkpt>
      <trkpt lat="45.1466" lon="2.01184">
        <ele>440</ele>
        <time>2011-08-13T15:24:57.000Z</time>
      </trkpt>
      <trkpt lat="45.1472" lon="2.01158">
        <ele>438</ele>
        <time>2011-08-13T15:25:03.000Z</time>
      </trkpt>
      <trkpt lat="45.1477" lon="2.01164">
        <ele>437</ele>
        <time>2011-08-13T15:25:08.000Z</time>
      </trkpt>
      <trkpt lat="45.1472" lon="2.0118">
        <ele>430</ele>
        <time>2011-08-13T15:25:27.000Z</time>
      </trkpt>
      <trkpt lat="45.1467" lon="2.01201">
        <ele>430</ele>
        <time>2011-08-13T15:25:34.000Z</time>
      </trkpt>
      <trkpt lat="45.1463" lon="2.01172">
        <ele>425</ele>
        <time>2011-08-13T15:25:40.000Z</time>
      </trkpt>
      <trkpt lat="45.1467" lon="2.01132">
        <ele>422</ele>
        <time>2011-08-13T15:25:48.000Z</time>
      </trkpt>
      <trkpt lat="45.1471" lon="2.01105">
        <ele>421</ele>
        <time>2011-08-13T15:25:53.000Z</time>
      </trkpt>
      <trkpt lat="45.1476" lon="2.011">
        <ele>419</ele>
        <time>2011-08-13T15:25:58.000Z</time>
      </trkpt>
      <trkpt lat="45.1482" lon="2.01106">
        <ele>421</ele>
        <time>2011-08-13T15:26:04.000Z</time>
      </trkpt>
      <trkpt lat="45.1486" lon="2.01132">
        <ele>415</ele>
        <time>2011-08-13T15:26:08.000Z</time>
      </trkpt>
      <trkpt lat="45.1491" lon="2.01124">
        <ele>413</ele>
        <time>2011-08-13T15:26:12.000Z</time>
      </trkpt>
      <trkpt lat="45.1496" lon="2.011">
        <ele>409</ele>
        <time>2011-08-13T15:26:16.000Z</time>
      </trkpt>
      <trkpt lat="45.1501" lon="2.01078">
        <ele>404</ele>
        <time>2011-08-13T15:26:21.000Z</time>
      </trkpt>
      <trkpt lat="45.1506" lon="2.01078">
        <ele>401</ele>
        <time>2011-08-13T15:26:26.000Z</time>
      </trkpt>
      <trkpt lat="45.151" lon="2.01075">
        <ele>402</ele>
        <time>2011-08-13T15:26:30.000Z</time>
      </trkpt>
      <trkpt lat="45.1516" lon="2.01068">
        <ele>393</ele>
        <time>2011-08-13T15:26:36.000Z</time>
      </trkpt>
      <trkpt lat="45.152" lon="2.01029">
        <ele>387</ele>
        <time>2011-08-13T15:26:42.000Z</time>
      </trkpt>
      <trkpt lat="45.1522" lon="2.00969">
        <ele>376</ele>
        <time>2011-08-13T15:26:52.000Z</time>
      </trkpt>
      <trkpt lat="45.1519" lon="2.00915">
        <ele>315</ele>
        <time>2011-08-13T15:28:48.000Z</time>
      </trkpt>
      <trkpt lat="45.1517" lon="2.00858">
        <ele>315</ele>
        <time>2011-08-13T15:29:56.000Z</time>
      </trkpt>
      <trkpt lat="45.152" lon="2.00815">
        <ele>322</ele>
        <time>2011-08-13T15:30:48.000Z</time>
      </trkpt>
      <trkpt lat="45.1525" lon="2.00814">
        <ele>323</ele>
        <time>2011-08-13T15:30:59.000Z</time>
      </trkpt>
      <trkpt lat="45.153" lon="2.00828">
        <ele>322</ele>
        <time>2011-08-13T15:31:15.000Z</time>
      </trkpt>
      <trkpt lat="45.1534" lon="2.00837">
        <ele>327</ele>
        <time>2011-08-13T15:31:44.000Z</time>
      </trkpt>
      <trkpt lat="45.1539" lon="2.00844">
        <ele>331</ele>
        <time>2011-08-13T15:31:50.000Z</time>
      </trkpt>
      <trkpt lat="45.1544" lon="2.00864">
        <ele>335</ele>
        <time>2011-08-13T15:31:58.000Z</time>
      </trkpt>
      <trkpt lat="45.1549" lon="2.0089">
        <ele>343</ele>
        <time>2011-08-13T15:32:10.000Z</time>
      </trkpt>
      <trkpt lat="45.1553" lon="2.0092">
        <ele>346</ele>
        <time>2011-08-13T15:32:22.000Z</time>
      </trkpt>
      <trkpt lat="45.1557" lon="2.00955">
        <ele>348</ele>
        <time>2011-08-13T15:32:38.000Z</time>
      </trkpt>
      <trkpt lat="45.1562" lon="2.00984">
        <ele>351</ele>
        <time>2011-08-13T15:32:50.000Z</time>
      </trkpt>
      <trkpt lat="45.1567" lon="2.01003">
        <ele>353</ele>
        <time>2011-08-13T15:32:59.000Z</time>
      </trkpt>
      <trkpt lat="45.1571" lon="2.01031">
        <ele>350</ele>
        <time>2011-08-13T15:33:06.000Z</time>
      </trkpt>
      <trkpt lat="45.1575" lon="2.01056">
        <ele>350</ele>
        <time>2011-08-13T15:33:14.000Z</time>
      </trkpt>
      <trkpt lat="45.1578" lon="2.01101">
        <ele>348</ele>
        <time>2011-08-13T15:33:27.000Z</time>
      </trkpt>
      <trkpt lat="45.1583" lon="2.01073">
        <ele>335</ele>
        <time>2011-08-13T15:33:37.000Z</time>
      </trkpt>
      <trkpt lat="45.1586" lon="2.01024">
        <ele>331</ele>
        <time>2011-08-13T15:33:49.000Z</time>
      </trkpt>
      <trkpt lat="45.1589" lon="2.00969">
        <ele>327</ele>
        <time>2011-08-13T15:34:01.000Z</time>
      </trkpt>
      <trkpt lat="45.1592" lon="2.00918">
        <ele>323</ele>
        <time>2011-08-13T15:34:11.000Z</time>
      </trkpt>
      <trkpt lat="45.1594" lon="2.00855">
        <ele>322</ele>
        <time>2011-08-13T15:34:21.000Z</time>
      </trkpt>
      <trkpt lat="45.1596" lon="2.008">
        <ele>324</ele>
        <time>2011-08-13T15:34:29.000Z</time>
      </trkpt>
      <trkpt lat="45.1599" lon="2.00748">
        <ele>322</ele>
        <time>2011-08-13T15:34:37.000Z</time>
      </trkpt>
      <trkpt lat="45.1602" lon="2.00693">
        <ele>321</ele>
        <time>2011-08-13T15:34:45.000Z</time>
      </trkpt>
      <trkpt lat="45.1606" lon="2.0064">
        <ele>321</ele>
        <time>2011-08-13T15:34:54.000Z</time>
      </trkpt>
      <trkpt lat="45.1609" lon="2.00584">
        <ele>323</ele>
        <time>2011-08-13T15:35:04.000Z</time>
      </trkpt>
      <trkpt lat="45.1611" lon="2.00528">
        <ele>325</ele>
        <time>2011-08-13T15:35:22.000Z</time>
      </trkpt>
      <trkpt lat="45.1614" lon="2.00478">
        <ele>333</ele>
        <time>2011-08-13T15:35:40.000Z</time>
      </trkpt>
      <trkpt lat="45.1618" lon="2.00431">
        <ele>345</ele>
        <time>2011-08-13T15:36:24.000Z</time>
      </trkpt>
      <trkpt lat="45.1622" lon="2.00402">
        <ele>350</ele>
        <time>2011-08-13T15:36:32.000Z</time>
      </trkpt>
      <trkpt lat="45.1627" lon="2.00388">
        <ele>361</ele>
        <time>2011-08-13T15:36:44.000Z</time>
      </trkpt>
      <trkpt lat="45.1631" lon="2.00382">
        <ele>367</ele>
        <time>2011-08-13T15:37:03.000Z</time>
      </trkpt>
      <trkpt lat="45.1635" lon="2.00354">
        <ele>364</ele>
        <time>2011-08-13T15:37:12.000Z</time>
      </trkpt>
      <trkpt lat="45.1639" lon="2.00322">
        <ele>359</ele>
        <time>2011-08-13T15:37:31.000Z</time>
      </trkpt>
      <trkpt lat="45.1642" lon="2.00268">
        <ele>360</ele>
        <time>2011-08-13T15:37:47.000Z</time>
      </trkpt>
      <trkpt lat="45.1646" lon="2.00228">
        <ele>370</ele>
        <time>2011-08-13T15:38:11.000Z</time>
      </trkpt>
      <trkpt lat="45.1651" lon="2.00212">
        <ele>378</ele>
        <time>2011-08-13T15:38:24.000Z</time>
      </trkpt>
      <trkpt lat="45.1647" lon="2.00252">
        <ele>387</ele>
        <time>2011-08-13T15:39:03.000Z</time>
      </trkpt>
      <trkpt lat="45.1643" lon="2.00274">
        <ele>395</ele>
        <time>2011-08-13T15:39:28.000Z</time>
      </trkpt>
      <trkpt lat="45.1638" lon="2.00305">
        <ele>400</ele>
        <time>2011-08-13T15:39:43.000Z</time>
      </trkpt>
      <trkpt lat="45.1634" lon="2.00329">
        <ele>398</ele>
        <time>2011-08-13T15:39:55.000Z</time>
      </trkpt>
      <trkpt lat="45.1629" lon="2.00334">
        <ele>404</ele>
        <time>2011-08-13T15:40:12.000Z</time>
      </trkpt>
      <trkpt lat="45.1624" lon="2.00347">
        <ele>404</ele>
        <time>2011-08-13T15:40:28.000Z</time>
      </trkpt>
      <trkpt lat="45.1626" lon="2.00289">
        <ele>410</ele>
        <time>2011-08-13T15:41:10.000Z</time>
      </trkpt>
      <trkpt lat="45.1631" lon="2.00262">
        <ele>414</ele>
        <time>2011-08-13T15:41:24.000Z</time>
      </trkpt>
      <trkpt lat="45.1635" lon="2.00226">
        <ele>413</ele>
        <time>2011-08-13T15:41:40.000Z</time>
      </trkpt>
      <trkpt lat="45.1637" lon="2.00168">
        <ele>420</ele>
        <time>2011-08-13T15:42:00.000Z</time>
      </trkpt>
      <trkpt lat="45.1641" lon="2.00133">
        <ele>420</ele>
        <time>2011-08-13T15:42:12.000Z</time>
      </trkpt>
      <trkpt lat="45.1645" lon="2.00089">
        <ele>426</ele>
        <time>2011-08-13T15:42:32.000Z</time>
      </trkpt>
      <trkpt lat="45.1649" lon="2.00053">
        <ele>431</ele>
        <time>2011-08-13T15:42:46.000Z</time>
      </trkpt>
      <trkpt lat="45.1651" lon="1.99995">
        <ele>440</ele>
        <time>2011-08-13T15:43:11.000Z</time>
      </trkpt>
      <trkpt lat="45.1653" lon="1.99932">
        <ele>437</ele>
        <time>2011-08-13T15:43:26.000Z</time>
      </trkpt>
      <trkpt lat="45.1653" lon="1.99868">
        <ele>439</ele>
        <time>2011-08-13T15:43:51.000Z</time>
      </trkpt>
      <trkpt lat="45.1653" lon="1.99804">
        <ele>444</ele>
        <time>2011-08-13T15:44:15.000Z</time>
      </trkpt>
      <trkpt lat="45.1658" lon="1.99782">
        <ele>448</ele>
        <time>2011-08-13T15:44:26.000Z</time>
      </trkpt>
      <trkpt lat="45.166" lon="1.99731">
        <ele>458</ele>
        <time>2011-08-13T15:44:54.000Z</time>
      </trkpt>
      <trkpt lat="45.1665" lon="1.99741">
        <ele>464</ele>
        <time>2011-08-13T15:45:18.000Z</time>
      </trkpt>
      <trkpt lat="45.1669" lon="1.99769">
        <ele>470</ele>
        <time>2011-08-13T15:45:38.000Z</time>
      </trkpt>
      <trkpt lat="45.1674" lon="1.99784">
        <ele>477</ele>
        <time>2011-08-13T15:45:59.000Z</time>
      </trkpt>
      <trkpt lat="45.1678" lon="1.99765">
        <ele>487</ele>
        <time>2011-08-13T15:46:25.000Z</time>
      </trkpt>
      <trkpt lat="45.1683" lon="1.99766">
        <ele>490</ele>
        <time>2011-08-13T15:46:40.000Z</time>
      </trkpt>
      <trkpt lat="45.1687" lon="1.99776">
        <ele>493</ele>
        <time>2011-08-13T15:46:52.000Z</time>
      </trkpt>
      <trkpt lat="45.1698" lon="1.99807">
        <ele>503</ele>
        <time>2011-08-13T15:47:32.000Z</time>
      </trkpt>
      <trkpt lat="45.1692" lon="1.99696">
        <ele>505</ele>
        <time>2011-08-13T15:48:33.000Z</time>
      </trkpt>
      <trkpt lat="45.1687" lon="1.99609">
        <ele>501</ele>
        <time>2011-08-13T15:49:03.000Z</time>
      </trkpt>
      <trkpt lat="45.1683" lon="1.99466">
        <ele>529</ele>
        <time>2011-08-13T15:49:35.000Z</time>
      </trkpt>
      <trkpt lat="45.1681" lon="1.99358">
        <ele>512</ele>
        <time>2011-08-13T15:50:06.000Z</time>
      </trkpt>
      <trkpt lat="45.1683" lon="1.99246">
        <ele>525</ele>
        <time>2011-08-13T15:50:34.000Z</time>
      </trkpt>
      <trkpt lat="45.1679" lon="1.99158">
        <ele>518</ele>
        <time>2011-08-13T15:51:04.000Z</time>
      </trkpt>
      <trkpt lat="45.1675" lon="1.9908">
        <ele>515</ele>
        <time>2011-08-13T15:51:34.000Z</time>
      </trkpt>
      <trkpt lat="45.1668" lon="1.98989">
        <ele>516</ele>
        <time>2011-08-13T15:52:04.000Z</time>
      </trkpt>
      <trkpt lat="45.1682" lon="1.98868">
        <ele>533</ele>
        <time>2011-08-13T15:52:36.000Z</time>
      </trkpt>
      <trkpt lat="45.1691" lon="1.98837">
        <ele>542</ele>
        <time>2011-08-13T15:53:07.000Z</time>
      </trkpt>
      <trkpt lat="45.17" lon="1.98834">
        <ele>548</ele>
        <time>2011-08-13T15:53:36.000Z</time>
      </trkpt>
      <trkpt lat="45.1708" lon="1.98706">
        <ele>540</ele>
        <time>2011-08-13T15:54:07.000Z</time>
      </trkpt>
      <trkpt lat="45.1713" lon="1.98603">
        <ele>554</ele>
        <time>2011-08-13T15:54:38.000Z</time>
      </trkpt>
      <trkpt lat="45.1718" lon="1.98522">
        <ele>554</ele>
        <time>2011-08-13T15:55:08.000Z</time>
      </trkpt>
      <trkpt lat="45.1732" lon="1.9847">
        <ele>557</ele>
        <time>2011-08-13T15:55:44.000Z</time>
      </trkpt>
      <trkpt lat="45.1744" lon="1.98472">
        <ele>564</ele>
        <time>2011-08-13T15:56:10.000Z</time>
      </trkpt>
      <trkpt lat="45.1756" lon="1.9842">
        <ele>568</ele>
        <time>2011-08-13T15:56:40.000Z</time>
      </trkpt>
      <trkpt lat="45.1772" lon="1.98491">
        <ele>562</ele>
        <time>2011-08-13T15:57:14.000Z</time>
      </trkpt>
      <trkpt lat="45.1775" lon="1.98435">
        <ele>550</ele>
        <time>2011-08-13T15:57:25.000Z</time>
      </trkpt>
      <trkpt lat="45.1776" lon="1.98365">
        <ele>547</ele>
        <time>2011-08-13T15:57:33.000Z</time>
      </trkpt>
      <trkpt lat="45.178" lon="1.9834">
        <ele>548</ele>
        <time>2011-08-13T15:57:40.000Z</time>
      </trkpt>
      <trkpt lat="45.1781" lon="1.98276">
        <ele>545</ele>
        <time>2011-08-13T15:57:47.000Z</time>
      </trkpt>
      <trkpt lat="45.1784" lon="1.98215">
        <ele>546</ele>
        <time>2011-08-13T15:57:55.000Z</time>
      </trkpt>
      <trkpt lat="45.1789" lon="1.98193">
        <ele>545</ele>
        <time>2011-08-13T15:58:01.000Z</time>
      </trkpt>
      <trkpt lat="45.1793" lon="1.98202">
        <ele>545</ele>
        <time>2011-08-13T15:58:07.000Z</time>
      </trkpt>
      <trkpt lat="45.1797" lon="1.98167">
        <ele>544</ele>
        <time>2011-08-13T15:58:14.000Z</time>
      </trkpt>
      <trkpt lat="45.1801" lon="1.98119">
        <ele>544</ele>
        <time>2011-08-13T15:58:21.000Z</time>
      </trkpt>
      <trkpt lat="45.1806" lon="1.98091">
        <ele>544</ele>
        <time>2011-08-13T15:58:28.000Z</time>
      </trkpt>
      <trkpt lat="45.1808" lon="1.98028">
        <ele>544</ele>
        <time>2011-08-13T15:58:39.000Z</time>
      </trkpt>
      <trkpt lat="45.1809" lon="1.97954">
        <ele>540</ele>
        <time>2011-08-13T15:58:46.000Z</time>
      </trkpt>
      <trkpt lat="45.1812" lon="1.97894">
        <ele>535</ele>
        <time>2011-08-13T15:58:52.000Z</time>
      </trkpt>
      <trkpt lat="45.1816" lon="1.97853">
        <ele>532</ele>
        <time>2011-08-13T15:58:58.000Z</time>
      </trkpt>
      <trkpt lat="45.1816" lon="1.97782">
        <ele>530</ele>
        <time>2011-08-13T15:59:06.000Z</time>
      </trkpt>
      <trkpt lat="45.182" lon="1.97724">
        <ele>530</ele>
        <time>2011-08-13T15:59:11.000Z</time>
      </trkpt>
      <trkpt lat="45.1823" lon="1.97676">
        <ele>528</ele>
        <time>2011-08-13T15:59:16.000Z</time>
      </trkpt>
      <trkpt lat="45.1827" lon="1.97625">
        <ele>527</ele>
        <time>2011-08-13T15:59:22.000Z</time>
      </trkpt>
      <trkpt lat="45.1831" lon="1.97584">
        <ele>527</ele>
        <time>2011-08-13T15:59:27.000Z</time>
      </trkpt>
      <trkpt lat="45.1835" lon="1.97545">
        <ele>526</ele>
        <time>2011-08-13T15:59:32.000Z</time>
      </trkpt>
      <trkpt lat="45.184" lon="1.97503">
        <ele>527</ele>
        <time>2011-08-13T15:59:38.000Z</time>
      </trkpt>
      <trkpt lat="45.1845" lon="1.97499">
        <ele>525</ele>
        <time>2011-08-13T15:59:46.000Z</time>
      </trkpt>
      <trkpt lat="45.185" lon="1.97493">
        <ele>524</ele>
        <time>2011-08-13T15:59:52.000Z</time>
      </trkpt>
      <trkpt lat="45.1856" lon="1.97495">
        <ele>526</ele>
        <time>2011-08-13T15:59:58.000Z</time>
      </trkpt>
      <trkpt lat="45.1861" lon="1.9749">
        <ele>524</ele>
        <time>2011-08-13T16:00:03.000Z</time>
      </trkpt>
      <trkpt lat="45.1866" lon="1.97468">
        <ele>523</ele>
        <time>2011-08-13T16:00:08.000Z</time>
      </trkpt>
      <trkpt lat="45.1871" lon="1.97445">
        <ele>520</ele>
        <time>2011-08-13T16:00:14.000Z</time>
      </trkpt>
      <trkpt lat="45.1876" lon="1.9744">
        <ele>522</ele>
        <time>2011-08-13T16:00:19.000Z</time>
      </trkpt>
      <trkpt lat="45.1881" lon="1.97433">
        <ele>519</ele>
        <time>2011-08-13T16:00:24.000Z</time>
      </trkpt>
      <trkpt lat="45.1886" lon="1.97492">
        <ele>506</ele>
        <time>2011-08-13T16:00:30.000Z</time>
      </trkpt>
      <trkpt lat="45.1889" lon="1.97542">
        <ele>502</ele>
        <time>2011-08-13T16:00:35.000Z</time>
      </trkpt>
      <trkpt lat="45.1894" lon="1.97533">
        <ele>506</ele>
        <time>2011-08-13T16:00:42.000Z</time>
      </trkpt>
      <trkpt lat="45.1899" lon="1.9753">
        <ele>507</ele>
        <time>2011-08-13T16:00:47.000Z</time>
      </trkpt>
      <trkpt lat="45.1905" lon="1.97533">
        <ele>504</ele>
        <time>2011-08-13T16:00:54.000Z</time>
      </trkpt>
      <trkpt lat="45.191" lon="1.97534">
        <ele>504</ele>
        <time>2011-08-13T16:00:59.000Z</time>
      </trkpt>
      <trkpt lat="45.1913" lon="1.97597">
        <ele>484</ele>
        <time>2011-08-13T16:01:02.000Z</time>
      </trkpt>
      <trkpt lat="45.1913" lon="1.97664">
        <ele>481</ele>
        <time>2011-08-13T16:01:06.000Z</time>
      </trkpt>
      <trkpt lat="45.1911" lon="1.97724">
        <ele>480</ele>
        <time>2011-08-13T16:01:11.000Z</time>
      </trkpt>
      <trkpt lat="45.1908" lon="1.97796">
        <ele>481</ele>
        <time>2011-08-13T16:01:18.000Z</time>
      </trkpt>
      <trkpt lat="45.1905" lon="1.97856">
        <ele>482</ele>
        <time>2011-08-13T16:01:23.000Z</time>
      </trkpt>
      <trkpt lat="45.1902" lon="1.97919">
        <ele>480</ele>
        <time>2011-08-13T16:01:30.000Z</time>
      </trkpt>
      <trkpt lat="45.1901" lon="1.97981">
        <ele>477</ele>
        <time>2011-08-13T16:01:35.000Z</time>
      </trkpt>
      <trkpt lat="45.1905" lon="1.97947">
        <ele>475</ele>
        <time>2011-08-13T16:01:47.000Z</time>
      </trkpt>
      <trkpt lat="45.1911" lon="1.97978">
        <ele>470</ele>
        <time>2011-08-13T16:01:54.000Z</time>
      </trkpt>
      <trkpt lat="45.1912" lon="1.98047">
        <ele>464</ele>
        <time>2011-08-13T16:01:59.000Z</time>
      </trkpt>
      <trkpt lat="45.1911" lon="1.98118">
        <ele>460</ele>
        <time>2011-08-13T16:02:06.000Z</time>
      </trkpt>
      <trkpt lat="45.1916" lon="1.9815">
        <ele>463</ele>
        <time>2011-08-13T16:02:15.000Z</time>
      </trkpt>
      <trkpt lat="45.192" lon="1.98249">
        <ele>449</ele>
        <time>2011-08-13T16:02:22.000Z</time>
      </trkpt>
      <trkpt lat="45.1923" lon="1.98296">
        <ele>442</ele>
        <time>2011-08-13T16:02:40.000Z</time>
      </trkpt>
      <trkpt lat="45.1927" lon="1.98247">
        <ele>438</ele>
        <time>2011-08-13T16:02:50.000Z</time>
      </trkpt>
      <trkpt lat="45.1922" lon="1.98224">
        <ele>432</ele>
        <time>2011-08-13T16:02:56.000Z</time>
      </trkpt>
      <trkpt lat="45.1918" lon="1.98192">
        <ele>424</ele>
        <time>2011-08-13T16:03:02.000Z</time>
      </trkpt>
      <trkpt lat="45.1917" lon="1.98128">
        <ele>419</ele>
        <time>2011-08-13T16:03:08.000Z</time>
      </trkpt>
      <trkpt lat="45.1921" lon="1.98069">
        <ele>420</ele>
        <time>2011-08-13T16:03:12.000Z</time>
      </trkpt>
      <trkpt lat="45.1926" lon="1.98025">
        <ele>420</ele>
        <time>2011-08-13T16:03:17.000Z</time>
      </trkpt>
      <trkpt lat="45.193" lon="1.98004">
        <ele>420</ele>
        <time>2011-08-13T16:03:23.000Z</time>
      </trkpt>
      <trkpt lat="45.1935" lon="1.98006">
        <ele>419</ele>
        <time>2011-08-13T16:03:29.000Z</time>
      </trkpt>
      <trkpt lat="45.1939" lon="1.97993">
        <ele>419</ele>
        <time>2011-08-13T16:03:35.000Z</time>
      </trkpt>
      <trkpt lat="45.1943" lon="1.97945">
        <ele>420</ele>
        <time>2011-08-13T16:03:42.000Z</time>
      </trkpt>
      <trkpt lat="45.1945" lon="1.97885">
        <ele>420</ele>
        <time>2011-08-13T16:03:49.000Z</time>
      </trkpt>
      <trkpt lat="45.195" lon="1.97862">
        <ele>418</ele>
        <time>2011-08-13T16:03:55.000Z</time>
      </trkpt>
      <trkpt lat="45.1954" lon="1.97894">
        <ele>417</ele>
        <time>2011-08-13T16:04:03.000Z</time>
      </trkpt>
      <trkpt lat="45.1958" lon="1.9793">
        <ele>418</ele>
        <time>2011-08-13T16:04:09.000Z</time>
      </trkpt>
      <trkpt lat="45.1963" lon="1.97936">
        <ele>420</ele>
        <time>2011-08-13T16:04:18.000Z</time>
      </trkpt>
      <trkpt lat="45.1966" lon="1.97889">
        <ele>423</ele>
        <time>2011-08-13T16:04:25.000Z</time>
      </trkpt>
      <trkpt lat="45.1969" lon="1.97828">
        <ele>428</ele>
        <time>2011-08-13T16:04:33.000Z</time>
      </trkpt>
      <trkpt lat="45.1966" lon="1.97764">
        <ele>404</ele>
        <time>2011-08-13T16:04:43.000Z</time>
      </trkpt>
      <trkpt lat="45.197" lon="1.97712">
        <ele>403</ele>
        <time>2011-08-13T16:04:47.000Z</time>
      </trkpt>
      <trkpt lat="45.1974" lon="1.97667">
        <ele>401</ele>
        <time>2011-08-13T16:04:53.000Z</time>
      </trkpt>
      <trkpt lat="45.1979" lon="1.9764">
        <ele>401</ele>
        <time>2011-08-13T16:04:59.000Z</time>
      </trkpt>
      <trkpt lat="45.1983" lon="1.97616">
        <ele>400</ele>
        <time>2011-08-13T16:05:05.000Z</time>
      </trkpt>
      <trkpt lat="45.1979" lon="1.97618">
        <ele>411</ele>
        <time>2011-08-13T16:05:37.000Z</time>
      </trkpt>
      <trkpt lat="45.1974" lon="1.97619">
        <ele>414</ele>
        <time>2011-08-13T16:05:55.000Z</time>
      </trkpt>
      <trkpt lat="45.1972" lon="1.97554">
        <ele>408</ele>
        <time>2011-08-13T16:06:21.000Z</time>
      </trkpt>
      <trkpt lat="45.1976" lon="1.97523">
        <ele>413</ele>
        <time>2011-08-13T16:06:41.000Z</time>
      </trkpt>
      <trkpt lat="45.1981" lon="1.9746">
        <ele>409</ele>
        <time>2011-08-13T16:07:23.000Z</time>
      </trkpt>
      <trkpt lat="45.1985" lon="1.97425">
        <ele>404</ele>
        <time>2011-08-13T16:07:39.000Z</time>
      </trkpt>
      <trkpt lat="45.1988" lon="1.97372">
        <ele>403</ele>
        <time>2011-08-13T16:08:07.000Z</time>
      </trkpt>
      <trkpt lat="45.1985" lon="1.97323">
        <ele>410</ele>
        <time>2011-08-13T16:08:27.000Z</time>
      </trkpt>
      <trkpt lat="45.1985" lon="1.97259">
        <ele>412</ele>
        <time>2011-08-13T16:08:43.000Z</time>
      </trkpt>
      <trkpt lat="45.1984" lon="1.97194">
        <ele>407</ele>
        <time>2011-08-13T16:09:03.000Z</time>
      </trkpt>
      <trkpt lat="45.1983" lon="1.97128">
        <ele>408</ele>
        <time>2011-08-13T16:09:20.000Z</time>
      </trkpt>
      <trkpt lat="45.1984" lon="1.97065">
        <ele>417</ele>
        <time>2011-08-13T16:09:40.000Z</time>
      </trkpt>
      <trkpt lat="45.1984" lon="1.96998">
        <ele>434</ele>
        <time>2011-08-13T16:10:14.000Z</time>
      </trkpt>
      <trkpt lat="45.1987" lon="1.97057">
        <ele>438</ele>
        <time>2011-08-13T16:10:38.000Z</time>
      </trkpt>
      <trkpt lat="45.1986" lon="1.97126">
        <ele>433</ele>
        <time>2011-08-13T16:10:58.000Z</time>
      </trkpt>
      <trkpt lat="45.1986" lon="1.97194">
        <ele>426</ele>
        <time>2011-08-13T16:11:14.000Z</time>
      </trkpt>
      <trkpt lat="45.1985" lon="1.97258">
        <ele>429</ele>
        <time>2011-08-13T16:11:34.000Z</time>
      </trkpt>
      <trkpt lat="45.1983" lon="1.97319">
        <ele>436</ele>
        <time>2011-08-13T16:11:52.000Z</time>
      </trkpt>
      <trkpt lat="45.1978" lon="1.9734">
        <ele>443</ele>
        <time>2011-08-13T16:12:10.000Z</time>
      </trkpt>
      <trkpt lat="45.1974" lon="1.97322">
        <ele>445</ele>
        <time>2011-08-13T16:12:23.000Z</time>
      </trkpt>
      <trkpt lat="45.197" lon="1.97361">
        <ele>453</ele>
        <time>2011-08-13T16:12:47.000Z</time>
      </trkpt>
      <trkpt lat="45.1971" lon="1.97298">
        <ele>448</ele>
        <time>2011-08-13T16:13:02.000Z</time>
      </trkpt>
      <trkpt lat="45.1974" lon="1.9725">
        <ele>446</ele>
        <time>2011-08-13T16:13:17.000Z</time>
      </trkpt>
      <trkpt lat="45.1978" lon="1.97246">
        <ele>454</ele>
        <time>2011-08-13T16:13:37.000Z</time>
      </trkpt>
      <trkpt lat="45.1979" lon="1.97178">
        <ele>465</ele>
        <time>2011-08-13T16:14:05.000Z</time>
      </trkpt>
      <trkpt lat="45.1977" lon="1.97117">
        <ele>470</ele>
        <time>2011-08-13T16:14:25.000Z</time>
      </trkpt>
      <trkpt lat="45.1973" lon="1.97085">
        <ele>476</ele>
        <time>2011-08-13T16:14:45.000Z</time>
      </trkpt>
      <trkpt lat="45.1968" lon="1.97066">
        <ele>480</ele>
        <time>2011-08-13T16:15:05.000Z</time>
      </trkpt>
      <trkpt lat="45.1964" lon="1.97059">
        <ele>484</ele>
        <time>2011-08-13T16:15:23.000Z</time>
      </trkpt>
      <trkpt lat="45.1959" lon="1.97053">
        <ele>491</ele>
        <time>2011-08-13T16:15:42.000Z</time>
      </trkpt>
      <trkpt lat="45.1956" lon="1.96995">
        <ele>488</ele>
        <time>2011-08-13T16:15:57.000Z</time>
      </trkpt>
      <trkpt lat="45.1954" lon="1.96933">
        <ele>488</ele>
        <time>2011-08-13T16:16:17.000Z</time>
      </trkpt>
      <trkpt lat="45.1956" lon="1.96871">
        <ele>490</ele>
        <time>2011-08-13T16:16:31.000Z</time>
      </trkpt>
      <trkpt lat="45.1958" lon="1.96812">
        <ele>490</ele>
        <time>2011-08-13T16:16:49.000Z</time>
      </trkpt>
      <trkpt lat="45.1958" lon="1.96749">
        <ele>497</ele>
        <time>2011-08-13T16:17:18.000Z</time>
      </trkpt>
      <trkpt lat="45.1955" lon="1.96694">
        <ele>504</ele>
        <time>2011-08-13T16:17:38.000Z</time>
      </trkpt>
      <trkpt lat="45.1956" lon="1.96625">
        <ele>506</ele>
        <time>2011-08-13T16:18:00.000Z</time>
      </trkpt>
      <trkpt lat="45.1958" lon="1.96567">
        <ele>508</ele>
        <time>2011-08-13T16:18:17.000Z</time>
      </trkpt>
      <trkpt lat="45.1962" lon="1.96521">
        <ele>505</ele>
        <time>2011-08-13T16:18:34.000Z</time>
      </trkpt>
      <trkpt lat="45.1964" lon="1.96458">
        <ele>506</ele>
        <time>2011-08-13T16:18:52.000Z</time>
      </trkpt>
      <trkpt lat="45.1966" lon="1.96401">
        <ele>506</ele>
        <time>2011-08-13T16:19:06.000Z</time>
      </trkpt>
      <trkpt lat="45.197" lon="1.96349">
        <ele>510</ele>
        <time>2011-08-13T16:19:20.000Z</time>
      </trkpt>
      <trkpt lat="45.1974" lon="1.96303">
        <ele>517</ele>
        <time>2011-08-13T16:19:36.000Z</time>
      </trkpt>
      <trkpt lat="45.1978" lon="1.96262">
        <ele>518</ele>
        <time>2011-08-13T16:19:50.000Z</time>
      </trkpt>
      <trkpt lat="45.1982" lon="1.96237">
        <ele>525</ele>
        <time>2011-08-13T16:20:04.000Z</time>
      </trkpt>
      <trkpt lat="45.1986" lon="1.96247">
        <ele>530</ele>
        <time>2011-08-13T16:20:17.000Z</time>
      </trkpt>
      <trkpt lat="45.1991" lon="1.9626">
        <ele>530</ele>
        <time>2011-08-13T16:20:30.000Z</time>
      </trkpt>
      <trkpt lat="45.1996" lon="1.96243">
        <ele>534</ele>
        <time>2011-08-13T16:20:44.000Z</time>
      </trkpt>
      <trkpt lat="45.2" lon="1.96215">
        <ele>536</ele>
        <time>2011-08-13T16:20:57.000Z</time>
      </trkpt>
      <trkpt lat="45.2005" lon="1.96189">
        <ele>537</ele>
        <time>2011-08-13T16:21:11.000Z</time>
      </trkpt>
      <trkpt lat="45.2008" lon="1.96151">
        <ele>541</ele>
        <time>2011-08-13T16:21:24.000Z</time>
      </trkpt>
      <trkpt lat="45.2013" lon="1.96122">
        <ele>542</ele>
        <time>2011-08-13T16:21:37.000Z</time>
      </trkpt>
      <trkpt lat="45.2015" lon="1.96062">
        <ele>540</ele>
        <time>2011-08-13T16:21:55.000Z</time>
      </trkpt>
      <trkpt lat="45.2015" lon="1.95997">
        <ele>541</ele>
        <time>2011-08-13T16:22:07.000Z</time>
      </trkpt>
      <trkpt lat="45.2017" lon="1.95939">
        <ele>540</ele>
        <time>2011-08-13T16:22:20.000Z</time>
      </trkpt>
      <trkpt lat="45.202" lon="1.95886">
        <ele>538</ele>
        <time>2011-08-13T16:22:31.000Z</time>
      </trkpt>
      <trkpt lat="45.2025" lon="1.95847">
        <ele>540</ele>
        <time>2011-08-13T16:22:47.000Z</time>
      </trkpt>
      <trkpt lat="45.2029" lon="1.95847">
        <ele>543</ele>
        <time>2011-08-13T16:22:59.000Z</time>
      </trkpt>
      <trkpt lat="45.2034" lon="1.95834">
        <ele>548</ele>
        <time>2011-08-13T16:23:12.000Z</time>
      </trkpt>
      <trkpt lat="45.2038" lon="1.95788">
        <ele>546</ele>
        <time>2011-08-13T16:23:26.000Z</time>
      </trkpt>
      <trkpt lat="45.204" lon="1.9573">
        <ele>549</ele>
        <time>2011-08-13T16:23:40.000Z</time>
      </trkpt>
      <trkpt lat="45.204" lon="1.95664">
        <ele>552</ele>
        <time>2011-08-13T16:23:54.000Z</time>
      </trkpt>
      <trkpt lat="45.2043" lon="1.95604">
        <ele>554</ele>
        <time>2011-08-13T16:24:04.000Z</time>
      </trkpt>
      <trkpt lat="45.2045" lon="1.95552">
        <ele>556</ele>
        <time>2011-08-13T16:24:16.000Z</time>
      </trkpt>
      <trkpt lat="45.2048" lon="1.95495">
        <ele>556</ele>
        <time>2011-08-13T16:24:28.000Z</time>
      </trkpt>
      <trkpt lat="45.205" lon="1.95442">
        <ele>559</ele>
        <time>2011-08-13T16:24:42.000Z</time>
      </trkpt>
      <trkpt lat="45.2053" lon="1.95386">
        <ele>562</ele>
        <time>2011-08-13T16:24:54.000Z</time>
      </trkpt>
      <trkpt lat="45.2053" lon="1.95322">
        <ele>562</ele>
        <time>2011-08-13T16:25:06.000Z</time>
      </trkpt>
      <trkpt lat="45.2055" lon="1.95249">
        <ele>563</ele>
        <time>2011-08-13T16:25:20.000Z</time>
      </trkpt>
      <trkpt lat="45.2058" lon="1.95207">
        <ele>567</ele>
        <time>2011-08-13T16:25:30.000Z</time>
      </trkpt>
      <trkpt lat="45.2063" lon="1.95183">
        <ele>574</ele>
        <time>2011-08-13T16:25:44.000Z</time>
      </trkpt>
      <trkpt lat="45.2068" lon="1.95161">
        <ele>577</ele>
        <time>2011-08-13T16:25:56.000Z</time>
      </trkpt>
      <trkpt lat="45.2072" lon="1.95126">
        <ele>576</ele>
        <time>2011-08-13T16:26:09.000Z</time>
      </trkpt>
      <trkpt lat="45.2076" lon="1.95086">
        <ele>572</ele>
        <time>2011-08-13T16:26:20.000Z</time>
      </trkpt>
      <trkpt lat="45.2079" lon="1.9504">
        <ele>571</ele>
        <time>2011-08-13T16:26:31.000Z</time>
      </trkpt>
      <trkpt lat="45.2083" lon="1.95">
        <ele>570</ele>
        <time>2011-08-13T16:26:42.000Z</time>
      </trkpt>
      <trkpt lat="45.2087" lon="1.9496">
        <ele>570</ele>
        <time>2011-08-13T16:26:53.000Z</time>
      </trkpt>
      <trkpt lat="45.2091" lon="1.94939">
        <ele>574</ele>
        <time>2011-08-13T16:27:02.000Z</time>
      </trkpt>
      <trkpt lat="45.2095" lon="1.94915">
        <ele>574</ele>
        <time>2011-08-13T16:27:12.000Z</time>
      </trkpt>
      <trkpt lat="45.21" lon="1.94884">
        <ele>579</ele>
        <time>2011-08-13T16:27:24.000Z</time>
      </trkpt>
      <trkpt lat="45.2104" lon="1.94863">
        <ele>580</ele>
        <time>2011-08-13T16:27:33.000Z</time>
      </trkpt>
      <trkpt lat="45.2108" lon="1.94829">
        <ele>579</ele>
        <time>2011-08-13T16:27:44.000Z</time>
      </trkpt>
      <trkpt lat="45.2112" lon="1.94785">
        <ele>578</ele>
        <time>2011-08-13T16:27:54.000Z</time>
      </trkpt>
      <trkpt lat="45.2115" lon="1.94729">
        <ele>575</ele>
        <time>2011-08-13T16:28:05.000Z</time>
      </trkpt>
      <trkpt lat="45.2116" lon="1.94661">
        <ele>574</ele>
        <time>2011-08-13T16:28:17.000Z</time>
      </trkpt>
      <trkpt lat="45.2116" lon="1.94593">
        <ele>575</ele>
        <time>2011-08-13T16:28:28.000Z</time>
      </trkpt>
      <trkpt lat="45.2114" lon="1.94534">
        <ele>583</ele>
        <time>2011-08-13T16:28:38.000Z</time>
      </trkpt>
      <trkpt lat="45.211" lon="1.94505">
        <ele>587</ele>
        <time>2011-08-13T16:28:46.000Z</time>
      </trkpt>
      <trkpt lat="45.2105" lon="1.94463">
        <ele>591</ele>
        <time>2011-08-13T16:28:56.000Z</time>
      </trkpt>
      <trkpt lat="45.2103" lon="1.94389">
        <ele>586</ele>
        <time>2011-08-13T16:29:04.000Z</time>
      </trkpt>
      <trkpt lat="45.2103" lon="1.94312">
        <ele>583</ele>
        <time>2011-08-13T16:29:12.000Z</time>
      </trkpt>
      <trkpt lat="45.2104" lon="1.94242">
        <ele>581</ele>
        <time>2011-08-13T16:29:20.000Z</time>
      </trkpt>
      <trkpt lat="45.2104" lon="1.94175">
        <ele>582</ele>
        <time>2011-08-13T16:29:28.000Z</time>
      </trkpt>
      <trkpt lat="45.2105" lon="1.94106">
        <ele>582</ele>
        <time>2011-08-13T16:29:36.000Z</time>
      </trkpt>
      <trkpt lat="45.2105" lon="1.94039">
        <ele>578</ele>
        <time>2011-08-13T16:29:44.000Z</time>
      </trkpt>
      <trkpt lat="45.2101" lon="1.93989">
        <ele>580</ele>
        <time>2011-08-13T16:29:53.000Z</time>
      </trkpt>
      <trkpt lat="45.2101" lon="1.93915">
        <ele>577</ele>
        <time>2011-08-13T16:30:00.000Z</time>
      </trkpt>
      <trkpt lat="45.2102" lon="1.93847">
        <ele>574</ele>
        <time>2011-08-13T16:30:08.000Z</time>
      </trkpt>
      <trkpt lat="45.2105" lon="1.9379">
        <ele>570</ele>
        <time>2011-08-13T16:30:16.000Z</time>
      </trkpt>
      <trkpt lat="45.2107" lon="1.93733">
        <ele>570</ele>
        <time>2011-08-13T16:30:25.000Z</time>
      </trkpt>
      <trkpt lat="45.2109" lon="1.93664">
        <ele>568</ele>
        <time>2011-08-13T16:30:36.000Z</time>
      </trkpt>
      <trkpt lat="45.2107" lon="1.93596">
        <ele>576</ele>
        <time>2011-08-13T16:30:48.000Z</time>
      </trkpt>
      <trkpt lat="45.2105" lon="1.93543">
        <ele>581</ele>
        <time>2011-08-13T16:30:57.000Z</time>
      </trkpt>
      <trkpt lat="45.2102" lon="1.93489">
        <ele>581</ele>
        <time>2011-08-13T16:31:05.000Z</time>
      </trkpt>
      <trkpt lat="45.2099" lon="1.93438">
        <ele>582</ele>
        <time>2011-08-13T16:31:15.000Z</time>
      </trkpt>
      <trkpt lat="45.2095" lon="1.93396">
        <ele>587</ele>
        <time>2011-08-13T16:31:25.000Z</time>
      </trkpt>
      <trkpt lat="45.2093" lon="1.93339">
        <ele>590</ele>
        <time>2011-08-13T16:31:36.000Z</time>
      </trkpt>
      <trkpt lat="45.2091" lon="1.93281">
        <ele>592</ele>
        <time>2011-08-13T16:31:44.000Z</time>
      </trkpt>
      <trkpt lat="45.2092" lon="1.93208">
        <ele>584</ele>
        <time>2011-08-13T16:31:51.000Z</time>
      </trkpt>
      <trkpt lat="45.2093" lon="1.93149">
        <ele>581</ele>
        <time>2011-08-13T16:32:01.000Z</time>
      </trkpt>
      <trkpt lat="45.2096" lon="1.93092">
        <ele>580</ele>
        <time>2011-08-13T16:32:11.000Z</time>
      </trkpt>
      <trkpt lat="45.2098" lon="1.93026">
        <ele>578</ele>
        <time>2011-08-13T16:32:23.000Z</time>
      </trkpt>
      <trkpt lat="45.21" lon="1.92967">
        <ele>581</ele>
        <time>2011-08-13T16:32:35.000Z</time>
      </trkpt>
      <trkpt lat="45.2102" lon="1.92909">
        <ele>578</ele>
        <time>2011-08-13T16:32:45.000Z</time>
      </trkpt>
      <trkpt lat="45.2104" lon="1.92847">
        <ele>575</ele>
        <time>2011-08-13T16:32:55.000Z</time>
      </trkpt>
      <trkpt lat="45.2106" lon="1.92788">
        <ele>574</ele>
        <time>2011-08-13T16:33:05.000Z</time>
      </trkpt>
      <trkpt lat="45.2107" lon="1.92723">
        <ele>576</ele>
        <time>2011-08-13T16:33:15.000Z</time>
      </trkpt>
      <trkpt lat="45.2109" lon="1.92659">
        <ele>577</ele>
        <time>2011-08-13T16:33:25.000Z</time>
      </trkpt>
      <trkpt lat="45.2111" lon="1.92599">
        <ele>584</ele>
        <time>2011-08-13T16:33:35.000Z</time>
      </trkpt>
      <trkpt lat="45.2112" lon="1.92533">
        <ele>583</ele>
        <time>2011-08-13T16:33:45.000Z</time>
      </trkpt>
      <trkpt lat="45.2114" lon="1.92466">
        <ele>586</ele>
        <time>2011-08-13T16:33:55.000Z</time>
      </trkpt>
      <trkpt lat="45.2114" lon="1.92402">
        <ele>589</ele>
        <time>2011-08-13T16:34:04.000Z</time>
      </trkpt>
      <trkpt lat="45.2115" lon="1.92332">
        <ele>592</ele>
        <time>2011-08-13T16:34:13.000Z</time>
      </trkpt>
      <trkpt lat="45.2116" lon="1.92255">
        <ele>590</ele>
        <time>2011-08-13T16:34:23.000Z</time>
      </trkpt>
      <trkpt lat="45.2115" lon="1.92182">
        <ele>591</ele>
        <time>2011-08-13T16:34:31.000Z</time>
      </trkpt>
      <trkpt lat="45.2115" lon="1.92108">
        <ele>590</ele>
        <time>2011-08-13T16:34:39.000Z</time>
      </trkpt>
      <trkpt lat="45.2115" lon="1.92039">
        <ele>590</ele>
        <time>2011-08-13T16:34:47.000Z</time>
      </trkpt>
      <trkpt lat="45.2118" lon="1.91976">
        <ele>591</ele>
        <time>2011-08-13T16:34:59.000Z</time>
      </trkpt>
      <trkpt lat="45.2121" lon="1.92018">
        <ele>591</ele>
        <time>2011-08-13T16:35:12.000Z</time>
      </trkpt>
      <trkpt lat="45.2125" lon="1.92083">
        <ele>589</ele>
        <time>2011-08-13T16:35:23.000Z</time>
      </trkpt>
      <trkpt lat="45.2127" lon="1.92134">
        <ele>589</ele>
        <time>2011-08-13T16:35:32.000Z</time>
      </trkpt>
      <trkpt lat="45.2129" lon="1.92195">
        <ele>591</ele>
        <time>2011-08-13T16:35:43.000Z</time>
      </trkpt>
      <trkpt lat="45.2132" lon="1.92256">
        <ele>593</ele>
        <time>2011-08-13T16:35:52.000Z</time>
      </trkpt>
      <trkpt lat="45.2133" lon="1.92322">
        <ele>594</ele>
        <time>2011-08-13T16:36:01.000Z</time>
      </trkpt>
      <trkpt lat="45.2135" lon="1.92384">
        <ele>594</ele>
        <time>2011-08-13T16:36:10.000Z</time>
      </trkpt>
      <trkpt lat="45.2138" lon="1.92437">
        <ele>593</ele>
        <time>2011-08-13T16:36:22.000Z</time>
      </trkpt>
      <trkpt lat="45.2142" lon="1.92481">
        <ele>595</ele>
        <time>2011-08-13T16:36:32.000Z</time>
      </trkpt>
      <trkpt lat="45.2145" lon="1.92529">
        <ele>597</ele>
        <time>2011-08-13T16:36:42.000Z</time>
      </trkpt>
      <trkpt lat="45.2149" lon="1.92564">
        <ele>600</ele>
        <time>2011-08-13T16:36:54.000Z</time>
      </trkpt>
      <trkpt lat="45.2154" lon="1.92587">
        <ele>600</ele>
        <time>2011-08-13T16:37:03.000Z</time>
      </trkpt>
      <trkpt lat="45.2159" lon="1.92601">
        <ele>599</ele>
        <time>2011-08-13T16:37:13.000Z</time>
      </trkpt>
      <trkpt lat="45.2163" lon="1.92604">
        <ele>602</ele>
        <time>2011-08-13T16:37:24.000Z</time>
      </trkpt>
      <trkpt lat="45.2168" lon="1.92624">
        <ele>602</ele>
        <time>2011-08-13T16:37:34.000Z</time>
      </trkpt>
      <trkpt lat="45.2173" lon="1.92628">
        <ele>604</ele>
        <time>2011-08-13T16:37:45.000Z</time>
      </trkpt>
      <trkpt lat="45.2178" lon="1.92635">
        <ele>604</ele>
        <time>2011-08-13T16:37:55.000Z</time>
      </trkpt>
      <trkpt lat="45.2182" lon="1.9263">
        <ele>605</ele>
        <time>2011-08-13T16:38:04.000Z</time>
      </trkpt>
      <trkpt lat="45.2187" lon="1.92632">
        <ele>608</ele>
        <time>2011-08-13T16:38:13.000Z</time>
      </trkpt>
      <trkpt lat="45.2192" lon="1.92647">
        <ele>609</ele>
        <time>2011-08-13T16:38:21.000Z</time>
      </trkpt>
      <trkpt lat="45.2196" lon="1.92661">
        <ele>609</ele>
        <time>2011-08-13T16:38:29.000Z</time>
      </trkpt>
      <trkpt lat="45.2201" lon="1.92698">
        <ele>608</ele>
        <time>2011-08-13T16:38:37.000Z</time>
      </trkpt>
      <trkpt lat="45.2205" lon="1.92737">
        <ele>607</ele>
        <time>2011-08-13T16:38:46.000Z</time>
      </trkpt>
      <trkpt lat="45.2209" lon="1.92777">
        <ele>602</ele>
        <time>2011-08-13T16:38:55.000Z</time>
      </trkpt>
      <trkpt lat="45.2214" lon="1.92813">
        <ele>602</ele>
        <time>2011-08-13T16:39:05.000Z</time>
      </trkpt>
      <trkpt lat="45.2218" lon="1.9284">
        <ele>604</ele>
        <time>2011-08-13T16:39:13.000Z</time>
      </trkpt>
      <trkpt lat="45.2221" lon="1.92894">
        <ele>602</ele>
        <time>2011-08-13T16:39:20.000Z</time>
      </trkpt>
      <trkpt lat="45.2224" lon="1.92948">
        <ele>601</ele>
        <time>2011-08-13T16:39:28.000Z</time>
      </trkpt>
      <trkpt lat="45.2227" lon="1.93007">
        <ele>599</ele>
        <time>2011-08-13T16:39:36.000Z</time>
      </trkpt>
      <trkpt lat="45.223" lon="1.93056">
        <ele>598</ele>
        <time>2011-08-13T16:39:45.000Z</time>
      </trkpt>
      <trkpt lat="45.2234" lon="1.93097">
        <ele>602</ele>
        <time>2011-08-13T16:39:54.000Z</time>
      </trkpt>
      <trkpt lat="45.2238" lon="1.93139">
        <ele>605</ele>
        <time>2011-08-13T16:40:04.000Z</time>
      </trkpt>
      <trkpt lat="45.2241" lon="1.93182">
        <ele>604</ele>
        <time>2011-08-13T16:40:12.000Z</time>
      </trkpt>
      <trkpt lat="45.2245" lon="1.93223">
        <ele>603</ele>
        <time>2011-08-13T16:40:22.000Z</time>
      </trkpt>
      <trkpt lat="45.2249" lon="1.93252">
        <ele>607</ele>
        <time>2011-08-13T16:40:33.000Z</time>
      </trkpt>
      <trkpt lat="45.2254" lon="1.93272">
        <ele>609</ele>
        <time>2011-08-13T16:40:43.000Z</time>
      </trkpt>
      <trkpt lat="45.2258" lon="1.93304">
        <ele>609</ele>
        <time>2011-08-13T16:40:53.000Z</time>
      </trkpt>
      <trkpt lat="45.2262" lon="1.93321">
        <ele>610</ele>
        <time>2011-08-13T16:41:02.000Z</time>
      </trkpt>
      <trkpt lat="45.2267" lon="1.93342">
        <ele>610</ele>
        <time>2011-08-13T16:41:12.000Z</time>
      </trkpt>
      <trkpt lat="45.2272" lon="1.93357">
        <ele>613</ele>
        <time>2011-08-13T16:41:22.000Z</time>
      </trkpt>
      <trkpt lat="45.2277" lon="1.9338">
        <ele>613</ele>
        <time>2011-08-13T16:41:32.000Z</time>
      </trkpt>
      <trkpt lat="45.2281" lon="1.93396">
        <ele>612</ele>
        <time>2011-08-13T16:41:40.000Z</time>
      </trkpt>
      <trkpt lat="45.2286" lon="1.93404">
        <ele>611</ele>
        <time>2011-08-13T16:41:50.000Z</time>
      </trkpt>
      <trkpt lat="45.2291" lon="1.93406">
        <ele>615</ele>
        <time>2011-08-13T16:42:01.000Z</time>
      </trkpt>
      <trkpt lat="45.2296" lon="1.9342">
        <ele>618</ele>
        <time>2011-08-13T16:42:10.000Z</time>
      </trkpt>
      <trkpt lat="45.23" lon="1.93443">
        <ele>619</ele>
        <time>2011-08-13T16:42:18.000Z</time>
      </trkpt>
      <trkpt lat="45.2305" lon="1.93456">
        <ele>621</ele>
        <time>2011-08-13T16:42:28.000Z</time>
      </trkpt>
      <trkpt lat="45.231" lon="1.93473">
        <ele>620</ele>
        <time>2011-08-13T16:42:37.000Z</time>
      </trkpt>
      <trkpt lat="45.2314" lon="1.93495">
        <ele>617</ele>
        <time>2011-08-13T16:42:45.000Z</time>
      </trkpt>
      <trkpt lat="45.2318" lon="1.9351">
        <ele>614</ele>
        <time>2011-08-13T16:42:53.000Z</time>
      </trkpt>
      <trkpt lat="45.2323" lon="1.93525">
        <ele>614</ele>
        <time>2011-08-13T16:43:02.000Z</time>
      </trkpt>
      <trkpt lat="45.2328" lon="1.93521">
        <ele>617</ele>
        <time>2011-08-13T16:43:12.000Z</time>
      </trkpt>
      <trkpt lat="45.2332" lon="1.93505">
        <ele>620</ele>
        <time>2011-08-13T16:43:20.000Z</time>
      </trkpt>
      <trkpt lat="45.2337" lon="1.93497">
        <ele>615</ele>
        <time>2011-08-13T16:43:26.000Z</time>
      </trkpt>
      <trkpt lat="45.2342" lon="1.93491">
        <ele>615</ele>
        <time>2011-08-13T16:43:33.000Z</time>
      </trkpt>
      <trkpt lat="45.2346" lon="1.93503">
        <ele>615</ele>
        <time>2011-08-13T16:43:40.000Z</time>
      </trkpt>
      <trkpt lat="45.2351" lon="1.93526">
        <ele>614</ele>
        <time>2011-08-13T16:43:46.000Z</time>
      </trkpt>
      <trkpt lat="45.2354" lon="1.93576">
        <ele>610</ele>
        <time>2011-08-13T16:43:54.000Z</time>
      </trkpt>
      <trkpt lat="45.2357" lon="1.9363">
        <ele>610</ele>
        <time>2011-08-13T16:44:02.000Z</time>
      </trkpt>
      <trkpt lat="45.236" lon="1.93686">
        <ele>611</ele>
        <time>2011-08-13T16:44:11.000Z</time>
      </trkpt>
      <trkpt lat="45.2363" lon="1.93731">
        <ele>614</ele>
        <time>2011-08-13T16:44:21.000Z</time>
      </trkpt>
      <trkpt lat="45.2367" lon="1.93763">
        <ele>622</ele>
        <time>2011-08-13T16:44:31.000Z</time>
      </trkpt>
      <trkpt lat="45.2372" lon="1.9379">
        <ele>629</ele>
        <time>2011-08-13T16:44:39.000Z</time>
      </trkpt>
      <trkpt lat="45.2377" lon="1.93805">
        <ele>631</ele>
        <time>2011-08-13T16:44:51.000Z</time>
      </trkpt>
      <trkpt lat="45.2381" lon="1.93804">
        <ele>628</ele>
        <time>2011-08-13T16:44:59.000Z</time>
      </trkpt>
      <trkpt lat="45.2386" lon="1.93817">
        <ele>628</ele>
        <time>2011-08-13T16:45:08.000Z</time>
      </trkpt>
      <trkpt lat="45.239" lon="1.93846">
        <ele>625</ele>
        <time>2011-08-13T16:45:16.000Z</time>
      </trkpt>
      <trkpt lat="45.2394" lon="1.93895">
        <ele>619</ele>
        <time>2011-08-13T16:45:23.000Z</time>
      </trkpt>
      <trkpt lat="45.2399" lon="1.93955">
        <ele>606</ele>
        <time>2011-08-13T16:45:29.000Z</time>
      </trkpt>
      <trkpt lat="45.2401" lon="1.94014">
        <ele>600</ele>
        <time>2011-08-13T16:45:39.000Z</time>
      </trkpt>
      <trkpt lat="45.2403" lon="1.9407">
        <ele>602</ele>
        <time>2011-08-13T16:45:47.000Z</time>
      </trkpt>
      <trkpt lat="45.2406" lon="1.94131">
        <ele>605</ele>
        <time>2011-08-13T16:45:57.000Z</time>
      </trkpt>
      <trkpt lat="45.241" lon="1.94176">
        <ele>619</ele>
        <time>2011-08-13T16:46:13.000Z</time>
      </trkpt>
      <trkpt lat="45.2414" lon="1.94202">
        <ele>626</ele>
        <time>2011-08-13T16:46:23.000Z</time>
      </trkpt>
      <trkpt lat="45.2418" lon="1.94235">
        <ele>625</ele>
        <time>2011-08-13T16:46:31.000Z</time>
      </trkpt>
      <trkpt lat="45.2423" lon="1.94256">
        <ele>623</ele>
        <time>2011-08-13T16:46:40.000Z</time>
      </trkpt>
      <trkpt lat="45.2427" lon="1.94284">
        <ele>621</ele>
        <time>2011-08-13T16:46:49.000Z</time>
      </trkpt>
      <trkpt lat="45.2432" lon="1.94301">
        <ele>619</ele>
        <time>2011-08-13T16:46:59.000Z</time>
      </trkpt>
      <trkpt lat="45.2437" lon="1.94295">
        <ele>612</ele>
        <time>2011-08-13T16:47:08.000Z</time>
      </trkpt>
      <trkpt lat="45.2441" lon="1.94278">
        <ele>612</ele>
        <time>2011-08-13T16:47:17.000Z</time>
      </trkpt>
      <trkpt lat="45.2446" lon="1.94255">
        <ele>611</ele>
        <time>2011-08-13T16:47:27.000Z</time>
      </trkpt>
      <trkpt lat="45.2451" lon="1.9425">
        <ele>611</ele>
        <time>2011-08-13T16:47:36.000Z</time>
      </trkpt>
      <trkpt lat="45.2456" lon="1.94259">
        <ele>611</ele>
        <time>2011-08-13T16:47:45.000Z</time>
      </trkpt>
      <trkpt lat="45.246" lon="1.94288">
        <ele>612</ele>
        <time>2011-08-13T16:47:54.000Z</time>
      </trkpt>
      <trkpt lat="45.2465" lon="1.94307">
        <ele>621</ele>
        <time>2011-08-13T16:48:06.000Z</time>
      </trkpt>
      <trkpt lat="45.2469" lon="1.94341">
        <ele>622</ele>
        <time>2011-08-13T16:48:14.000Z</time>
      </trkpt>
      <trkpt lat="45.2473" lon="1.94371">
        <ele>621</ele>
        <time>2011-08-13T16:48:22.000Z</time>
      </trkpt>
      <trkpt lat="45.2477" lon="1.94405">
        <ele>621</ele>
        <time>2011-08-13T16:48:30.000Z</time>
      </trkpt>
      <trkpt lat="45.2481" lon="1.94426">
        <ele>621</ele>
        <time>2011-08-13T16:48:38.000Z</time>
      </trkpt>
      <trkpt lat="45.2486" lon="1.9446">
        <ele>621</ele>
        <time>2011-08-13T16:48:46.000Z</time>
      </trkpt>
      <trkpt lat="45.2489" lon="1.94505">
        <ele>621</ele>
        <time>2011-08-13T16:48:53.000Z</time>
      </trkpt>
      <trkpt lat="45.2493" lon="1.94551">
        <ele>621</ele>
        <time>2011-08-13T16:49:02.000Z</time>
      </trkpt>
      <trkpt lat="45.2495" lon="1.94611">
        <ele>618</ele>
        <time>2011-08-13T16:49:11.000Z</time>
      </trkpt>
      <trkpt lat="45.2497" lon="1.94672">
        <ele>615</ele>
        <time>2011-08-13T16:49:20.000Z</time>
      </trkpt>
      <trkpt lat="45.2499" lon="1.94732">
        <ele>614</ele>
        <time>2011-08-13T16:49:30.000Z</time>
      </trkpt>
      <trkpt lat="45.2502" lon="1.94792">
        <ele>625</ele>
        <time>2011-08-13T16:49:45.000Z</time>
      </trkpt>
      <trkpt lat="45.2506" lon="1.94845">
        <ele>632</ele>
        <time>2011-08-13T16:49:57.000Z</time>
      </trkpt>
      <trkpt lat="45.2509" lon="1.94889">
        <ele>633</ele>
        <time>2011-08-13T16:50:08.000Z</time>
      </trkpt>
      <trkpt lat="45.2512" lon="1.94935">
        <ele>638</ele>
        <time>2011-08-13T16:50:18.000Z</time>
      </trkpt>
      <trkpt lat="45.2516" lon="1.94975">
        <ele>639</ele>
        <time>2011-08-13T16:50:26.000Z</time>
      </trkpt>
      <trkpt lat="45.252" lon="1.94996">
        <ele>644</ele>
        <time>2011-08-13T16:50:33.000Z</time>
      </trkpt>
      <trkpt lat="45.2523" lon="1.95051">
        <ele>634</ele>
        <time>2011-08-13T16:50:40.000Z</time>
      </trkpt>
      <trkpt lat="45.2528" lon="1.95085">
        <ele>633</ele>
        <time>2011-08-13T16:50:49.000Z</time>
      </trkpt>
      <trkpt lat="45.2531" lon="1.95117">
        <ele>631</ele>
        <time>2011-08-13T16:50:57.000Z</time>
      </trkpt>
      <trkpt lat="45.2535" lon="1.95178">
        <ele>622</ele>
        <time>2011-08-13T16:51:05.000Z</time>
      </trkpt>
      <trkpt lat="45.2538" lon="1.95226">
        <ele>619</ele>
        <time>2011-08-13T16:51:12.000Z</time>
      </trkpt>
      <trkpt lat="45.2542" lon="1.95266">
        <ele>622</ele>
        <time>2011-08-13T16:51:21.000Z</time>
      </trkpt>
      <trkpt lat="45.2545" lon="1.95318">
        <ele>627</ele>
        <time>2011-08-13T16:51:32.000Z</time>
      </trkpt>
      <trkpt lat="45.2548" lon="1.95378">
        <ele>635</ele>
        <time>2011-08-13T16:51:44.000Z</time>
      </trkpt>
      <trkpt lat="45.2551" lon="1.95429">
        <ele>640</ele>
        <time>2011-08-13T16:51:53.000Z</time>
      </trkpt>
      <trkpt lat="45.2554" lon="1.95472">
        <ele>641</ele>
        <time>2011-08-13T16:52:00.000Z</time>
      </trkpt>
      <trkpt lat="45.2558" lon="1.95515">
        <ele>640</ele>
        <time>2011-08-13T16:52:08.000Z</time>
      </trkpt>
      <trkpt lat="45.2562" lon="1.95552">
        <ele>641</ele>
        <time>2011-08-13T16:52:14.000Z</time>
      </trkpt>
      <trkpt lat="45.2566" lon="1.95597">
        <ele>633</ele>
        <time>2011-08-13T16:52:21.000Z</time>
      </trkpt>
      <trkpt lat="45.257" lon="1.95638">
        <ele>626</ele>
        <time>2011-08-13T16:52:28.000Z</time>
      </trkpt>
      <trkpt lat="45.2574" lon="1.9568">
        <ele>625</ele>
        <time>2011-08-13T16:52:38.000Z</time>
      </trkpt>
      <trkpt lat="45.2578" lon="1.95717">
        <ele>624</ele>
        <time>2011-08-13T16:52:48.000Z</time>
      </trkpt>
      <trkpt lat="45.2582" lon="1.95757">
        <ele>624</ele>
        <time>2011-08-13T16:52:56.000Z</time>
      </trkpt>
      <trkpt lat="45.2587" lon="1.95791">
        <ele>631</ele>
        <time>2011-08-13T16:53:08.000Z</time>
      </trkpt>
      <trkpt lat="45.2591" lon="1.95823">
        <ele>634</ele>
        <time>2011-08-13T16:53:17.000Z</time>
      </trkpt>
      <trkpt lat="45.2596" lon="1.95858">
        <ele>636</ele>
        <time>2011-08-13T16:53:24.000Z</time>
      </trkpt>
      <trkpt lat="45.26" lon="1.95894">
        <ele>642</ele>
        <time>2011-08-13T16:53:33.000Z</time>
      </trkpt>
      <trkpt lat="45.2604" lon="1.95936">
        <ele>642</ele>
        <time>2011-08-13T16:53:41.000Z</time>
      </trkpt>
      <trkpt lat="45.2609" lon="1.95962">
        <ele>630</ele>
        <time>2011-08-13T16:53:47.000Z</time>
      </trkpt>
      <trkpt lat="45.2613" lon="1.95983">
        <ele>638</ele>
        <time>2011-08-13T16:53:54.000Z</time>
      </trkpt>
      <trkpt lat="45.2617" lon="1.96032">
        <ele>636</ele>
        <time>2011-08-13T16:53:58.000Z</time>
      </trkpt>
      <trkpt lat="45.2621" lon="1.96088">
        <ele>633</ele>
        <time>2011-08-13T16:54:02.000Z</time>
      </trkpt>
      <trkpt lat="45.2624" lon="1.96149">
        <ele>623</ele>
        <time>2011-08-13T16:54:05.000Z</time>
      </trkpt>
      <trkpt lat="45.2627" lon="1.96207">
        <ele>620</ele>
        <time>2011-08-13T16:54:09.000Z</time>
      </trkpt>
      <trkpt lat="45.263" lon="1.96271">
        <ele>615</ele>
        <time>2011-08-13T16:54:13.000Z</time>
      </trkpt>
      <trkpt lat="45.2632" lon="1.96332">
        <ele>610</ele>
        <time>2011-08-13T16:54:17.000Z</time>
      </trkpt>
      <trkpt lat="45.2636" lon="1.96393">
        <ele>606</ele>
        <time>2011-08-13T16:54:22.000Z</time>
      </trkpt>
      <trkpt lat="45.2642" lon="1.96427">
        <ele>609</ele>
        <time>2011-08-13T16:54:29.000Z</time>
      </trkpt>
      <trkpt lat="45.2647" lon="1.96449">
        <ele>610</ele>
        <time>2011-08-13T16:54:33.000Z</time>
      </trkpt>
      <trkpt lat="45.2651" lon="1.96477">
        <ele>607</ele>
        <time>2011-08-13T16:54:38.000Z</time>
      </trkpt>
      <trkpt lat="45.2655" lon="1.96512">
        <ele>601</ele>
        <time>2011-08-13T16:54:45.000Z</time>
      </trkpt>
      <trkpt lat="45.266" lon="1.96527">
        <ele>599</ele>
        <time>2011-08-13T16:54:51.000Z</time>
      </trkpt>
      <trkpt lat="45.2665" lon="1.96541">
        <ele>599</ele>
        <time>2011-08-13T16:54:58.000Z</time>
      </trkpt>
      <trkpt lat="45.2669" lon="1.96565">
        <ele>594</ele>
        <time>2011-08-13T16:55:05.000Z</time>
      </trkpt>
      <trkpt lat="45.2673" lon="1.96599">
        <ele>595</ele>
        <time>2011-08-13T16:55:13.000Z</time>
      </trkpt>
      <trkpt lat="45.2677" lon="1.96641">
        <ele>595</ele>
        <time>2011-08-13T16:55:19.000Z</time>
      </trkpt>
      <trkpt lat="45.268" lon="1.967">
        <ele>593</ele>
        <time>2011-08-13T16:55:27.000Z</time>
      </trkpt>
      <trkpt lat="45.2683" lon="1.9674">
        <ele>593</ele>
        <time>2011-08-13T16:55:34.000Z</time>
      </trkpt>
      <trkpt lat="45.2687" lon="1.96792">
        <ele>595</ele>
        <time>2011-08-13T16:55:48.000Z</time>
      </trkpt>
      <trkpt lat="45.2691" lon="1.96811">
        <ele>600</ele>
        <time>2011-08-13T16:55:55.000Z</time>
      </trkpt>
      <trkpt lat="45.2696" lon="1.96847">
        <ele>599</ele>
        <time>2011-08-13T16:56:03.000Z</time>
      </trkpt>
      <trkpt lat="45.27" lon="1.9687">
        <ele>598</ele>
        <time>2011-08-13T16:56:11.000Z</time>
      </trkpt>
      <trkpt lat="45.2705" lon="1.96886">
        <ele>595</ele>
        <time>2011-08-13T16:56:22.000Z</time>
      </trkpt>
      <trkpt lat="45.271" lon="1.96891">
        <ele>594</ele>
        <time>2011-08-13T16:56:34.000Z</time>
      </trkpt>
      <trkpt lat="45.2714" lon="1.96896">
        <ele>593</ele>
        <time>2011-08-13T16:56:43.000Z</time>
      </trkpt>
      <trkpt lat="45.2719" lon="1.96908">
        <ele>592</ele>
        <time>2011-08-13T16:56:53.000Z</time>
      </trkpt>
      <trkpt lat="45.2724" lon="1.96929">
        <ele>593</ele>
        <time>2011-08-13T16:57:03.000Z</time>
      </trkpt>
      <trkpt lat="45.2728" lon="1.96951">
        <ele>595</ele>
        <time>2011-08-13T16:57:14.000Z</time>
      </trkpt>
      <trkpt lat="45.2733" lon="1.96947">
        <ele>594</ele>
        <time>2011-08-13T16:57:25.000Z</time>
      </trkpt>
      <trkpt lat="45.2738" lon="1.96932">
        <ele>593</ele>
        <time>2011-08-13T16:57:33.000Z</time>
      </trkpt>
      <trkpt lat="45.2743" lon="1.96922">
        <ele>587</ele>
        <time>2011-08-13T16:57:41.000Z</time>
      </trkpt>
      <trkpt lat="45.2748" lon="1.96912">
        <ele>585</ele>
        <time>2011-08-13T16:57:49.000Z</time>
      </trkpt>
      <trkpt lat="45.2753" lon="1.96902">
        <ele>576</ele>
        <time>2011-08-13T16:57:57.000Z</time>
      </trkpt>
      <trkpt lat="45.2758" lon="1.96893">
        <ele>573</ele>
        <time>2011-08-13T16:58:06.000Z</time>
      </trkpt>
      <trkpt lat="45.2763" lon="1.96875">
        <ele>570</ele>
        <time>2011-08-13T16:58:17.000Z</time>
      </trkpt>
      <trkpt lat="45.2767" lon="1.96859">
        <ele>571</ele>
        <time>2011-08-13T16:58:27.000Z</time>
      </trkpt>
      <trkpt lat="45.2772" lon="1.96846">
        <ele>573</ele>
        <time>2011-08-13T16:58:37.000Z</time>
      </trkpt>
      <trkpt lat="45.2776" lon="1.96827">
        <ele>571</ele>
        <time>2011-08-13T16:58:47.000Z</time>
      </trkpt>
      <trkpt lat="45.2781" lon="1.96812">
        <ele>572</ele>
        <time>2011-08-13T16:58:56.000Z</time>
      </trkpt>
      <trkpt lat="45.2785" lon="1.96788">
        <ele>577</ele>
        <time>2011-08-13T16:59:09.000Z</time>
      </trkpt>
      <trkpt lat="45.2788" lon="1.96844">
        <ele>583</ele>
        <time>2011-08-13T16:59:24.000Z</time>
      </trkpt>
      <trkpt lat="45.2787" lon="1.9691">
        <ele>589</ele>
        <time>2011-08-13T16:59:37.000Z</time>
      </trkpt>
      <trkpt lat="45.2789" lon="1.96978">
        <ele>592</ele>
        <time>2011-08-13T16:59:52.000Z</time>
      </trkpt>
      <trkpt lat="45.2791" lon="1.97034">
        <ele>592</ele>
        <time>2011-08-13T17:00:02.000Z</time>
      </trkpt>
      <trkpt lat="45.2794" lon="1.97074">
        <ele>590</ele>
        <time>2011-08-13T17:00:28.000Z</time>
      </trkpt>
      <trkpt lat="45.2799" lon="1.97072">
        <ele>600</ele>
        <time>2011-08-13T17:00:52.000Z</time>
      </trkpt>
      <trkpt lat="45.2804" lon="1.97052">
        <ele>614</ele>
        <time>2011-08-13T17:01:12.000Z</time>
      </trkpt>
      <trkpt lat="45.2809" lon="1.97045">
        <ele>612</ele>
        <time>2011-08-13T17:01:21.000Z</time>
      </trkpt>
      <trkpt lat="45.2813" lon="1.97035">
        <ele>615</ele>
        <time>2011-08-13T17:01:32.000Z</time>
      </trkpt>
      <trkpt lat="45.2818" lon="1.97031">
        <ele>616</ele>
        <time>2011-08-13T17:01:43.000Z</time>
      </trkpt>
      <trkpt lat="45.2823" lon="1.97041">
        <ele>617</ele>
        <time>2011-08-13T17:01:53.000Z</time>
      </trkpt>
      <trkpt lat="45.2827" lon="1.97046">
        <ele>616</ele>
        <time>2011-08-13T17:02:03.000Z</time>
      </trkpt>
    </trkseg>
  </trk>
</gpx>